<?xml version="1.0" encoding="UTF-8" standalone="no" ?>
<gpx xmlns="http://www.topografix.com/GPX/1/1" xmlns:xsi="http://www.w3.org/2001/XMLSchema-instance" xsi:schemaLocation="http://www.topografix.com/GPX/1/1 http://www.topografix.com/GPX/1/1/gpx.xsd" version="1.1" creator="VisuGPX - https://www.visugpx.com">
  <metadata>
    <name>Extreme-Loue-33-450</name>
    <desc><![CDATA[Boucle au départ de Vuillafans - Extreme Loue - 33 km - D+ 450 m]]></desc>
  </metadata>
  <trk>
    <name><![CDATA[Extreme-Loue-33-450]]></name>
    <trkseg>
      <trkpt lat="47.06891" lon="6.20478">
        <ele>346.618652</ele>
      </trkpt>
      <trkpt lat="47.0692" lon="6.20461">
        <ele>345.27005</ele>
      </trkpt>
      <trkpt lat="47.06966" lon="6.20438">
        <ele>346.332733</ele>
      </trkpt>
      <trkpt lat="47.07043" lon="6.20395">
        <ele>345.458405</ele>
      </trkpt>
      <trkpt lat="47.07115" lon="6.20336">
        <ele>347.094482</ele>
      </trkpt>
      <trkpt lat="47.07132" lon="6.20311">
        <ele>347.753906</ele>
      </trkpt>
      <trkpt lat="47.07147" lon="6.20287">
        <ele>346.742126</ele>
      </trkpt>
      <trkpt lat="47.07174" lon="6.20232">
        <ele>345.036804</ele>
      </trkpt>
      <trkpt lat="47.07192" lon="6.20172">
        <ele>343.105438</ele>
      </trkpt>
      <trkpt lat="47.07216" lon="6.2005">
        <ele>340.218597</ele>
      </trkpt>
      <trkpt lat="47.07232" lon="6.19907">
        <ele>342.214996</ele>
      </trkpt>
      <trkpt lat="47.07257" lon="6.19733">
        <ele>341.163757</ele>
      </trkpt>
      <trkpt lat="47.07257" lon="6.19732">
        <ele>341.178467</ele>
      </trkpt>
      <trkpt lat="47.07264" lon="6.19668">
        <ele>342.089844</ele>
      </trkpt>
      <trkpt lat="47.07262" lon="6.19634">
        <ele>343.228302</ele>
      </trkpt>
      <trkpt lat="47.07268" lon="6.19591">
        <ele>344.468048</ele>
      </trkpt>
      <trkpt lat="47.07285" lon="6.19478">
        <ele>346.361176</ele>
      </trkpt>
      <trkpt lat="47.07297" lon="6.19387">
        <ele>344.126007</ele>
      </trkpt>
      <trkpt lat="47.07303" lon="6.19357">
        <ele>343.423553</ele>
      </trkpt>
      <trkpt lat="47.07304" lon="6.19342">
        <ele>343.311737</ele>
      </trkpt>
      <trkpt lat="47.073" lon="6.19332">
        <ele>343.846802</ele>
      </trkpt>
      <trkpt lat="47.07288" lon="6.19315">
        <ele>345.289673</ele>
      </trkpt>
      <trkpt lat="47.07277" lon="6.1929">
        <ele>346.385559</ele>
      </trkpt>
      <trkpt lat="47.07271" lon="6.19259">
        <ele>347.605865</ele>
      </trkpt>
      <trkpt lat="47.07271" lon="6.19243">
        <ele>347.998993</ele>
      </trkpt>
      <trkpt lat="47.07277" lon="6.19231">
        <ele>347.449249</ele>
      </trkpt>
      <trkpt lat="47.0729" lon="6.19216">
        <ele>346.735992</ele>
      </trkpt>
      <trkpt lat="47.07321" lon="6.1915">
        <ele>346.488708</ele>
      </trkpt>
      <trkpt lat="47.07352" lon="6.19082">
        <ele>346.290527</ele>
      </trkpt>
      <trkpt lat="47.0739" lon="6.19023">
        <ele>344.725311</ele>
      </trkpt>
      <trkpt lat="47.07473" lon="6.18931">
        <ele>348.320831</ele>
      </trkpt>
      <trkpt lat="47.07512" lon="6.1887">
        <ele>347.078094</ele>
      </trkpt>
      <trkpt lat="47.07521" lon="6.18859">
        <ele>346.746216</ele>
        <time>2020-08-22T09:25:57Z</time>
      </trkpt>
      <trkpt lat="47.07521" lon="6.18859">
        <ele>346.746216</ele>
        <time>2020-08-22T09:25:57Z</time>
      </trkpt>
      <trkpt lat="47.07552" lon="6.18807">
        <ele>346.831512</ele>
        <time>2020-08-22T09:26:08Z</time>
      </trkpt>
      <trkpt lat="47.0758" lon="6.18787">
        <ele>345.051697</ele>
        <time>2020-08-22T09:26:15Z</time>
      </trkpt>
      <trkpt lat="47.07625" lon="6.18726">
        <ele>350.053192</ele>
        <time>2020-08-22T09:26:30Z</time>
      </trkpt>
      <trkpt lat="47.07678" lon="6.18702">
        <ele>350.179993</ele>
        <time>2020-08-22T09:26:43Z</time>
      </trkpt>
      <trkpt lat="47.07735" lon="6.18687">
        <ele>348.684235</ele>
        <time>2020-08-22T09:26:56Z</time>
      </trkpt>
      <trkpt lat="47.07793" lon="6.18676">
        <ele>346.796936</ele>
        <time>2020-08-22T09:27:10Z</time>
      </trkpt>
      <trkpt lat="47.07875" lon="6.18649">
        <ele>347.103607</ele>
        <time>2020-08-22T09:27:29Z</time>
      </trkpt>
      <trkpt lat="47.07963" lon="6.18631">
        <ele>347.316406</ele>
        <time>2020-08-22T09:27:50Z</time>
      </trkpt>
      <trkpt lat="47.07985" lon="6.18658">
        <ele>342.59613</ele>
        <time>2020-08-22T09:27:57Z</time>
      </trkpt>
      <trkpt lat="47.08012" lon="6.18651">
        <ele>342.023193</ele>
        <time>2020-08-22T09:28:03Z</time>
      </trkpt>
      <trkpt lat="47.0804" lon="6.18633">
        <ele>341.946381</ele>
        <time>2020-08-22T09:28:10Z</time>
      </trkpt>
      <trkpt lat="47.08061" lon="6.18664">
        <ele>339.572784</ele>
        <time>2020-08-22T09:28:17Z</time>
      </trkpt>
      <trkpt lat="47.08087" lon="6.18689">
        <ele>339.746246</ele>
        <time>2020-08-22T09:28:25Z</time>
      </trkpt>
      <trkpt lat="47.08106" lon="6.18718">
        <ele>340.375</ele>
        <time>2020-08-22T09:28:31Z</time>
      </trkpt>
      <trkpt lat="47.08118" lon="6.1875">
        <ele>340.557495</ele>
        <time>2020-08-22T09:28:37Z</time>
      </trkpt>
      <trkpt lat="47.08124" lon="6.18788">
        <ele>340.733521</ele>
        <time>2020-08-22T09:28:43Z</time>
      </trkpt>
      <trkpt lat="47.08141" lon="6.18977">
        <ele>341.645111</ele>
        <time>2020-08-22T09:29:13Z</time>
      </trkpt>
      <trkpt lat="47.08149" lon="6.19007">
        <ele>342.134155</ele>
        <time>2020-08-22T09:29:18Z</time>
      </trkpt>
      <trkpt lat="47.08164" lon="6.19021">
        <ele>341.805084</ele>
        <time>2020-08-22T09:29:23Z</time>
      </trkpt>
      <trkpt lat="47.0824" lon="6.19024">
        <ele>341.301849</ele>
        <time>2020-08-22T09:29:40Z</time>
      </trkpt>
      <trkpt lat="47.08282" lon="6.19015">
        <ele>341.852509</ele>
        <time>2020-08-22T09:29:50Z</time>
      </trkpt>
      <trkpt lat="47.08312" lon="6.19017">
        <ele>342.517487</ele>
        <time>2020-08-22T09:29:57Z</time>
      </trkpt>
      <trkpt lat="47.08328" lon="6.19021">
        <ele>342.690002</ele>
        <time>2020-08-22T09:30:01Z</time>
      </trkpt>
      <trkpt lat="47.08351" lon="6.19034">
        <ele>343.074432</ele>
        <time>2020-08-22T09:30:07Z</time>
      </trkpt>
      <trkpt lat="47.08371" lon="6.19042">
        <ele>344.86496</ele>
        <time>2020-08-22T09:30:12Z</time>
      </trkpt>
      <trkpt lat="47.0838" lon="6.19038">
        <ele>345.49231</ele>
        <time>2020-08-22T09:30:14Z</time>
      </trkpt>
      <trkpt lat="47.08501" lon="6.18884">
        <ele>342.545654</ele>
        <time>2020-08-22T09:30:51Z</time>
      </trkpt>
      <trkpt lat="47.08525" lon="6.18878">
        <ele>345.463806</ele>
        <time>2020-08-22T09:30:57Z</time>
      </trkpt>
      <trkpt lat="47.08553" lon="6.18861">
        <ele>346.904388</ele>
        <time>2020-08-22T09:31:04Z</time>
      </trkpt>
      <trkpt lat="47.08629" lon="6.18783">
        <ele>345.533539</ele>
        <time>2020-08-22T09:31:26Z</time>
      </trkpt>
      <trkpt lat="47.08678" lon="6.18758">
        <ele>347.043762</ele>
        <time>2020-08-22T09:31:38Z</time>
      </trkpt>
      <trkpt lat="47.08711" lon="6.18744">
        <ele>347.198761</ele>
        <time>2020-08-22T09:31:46Z</time>
      </trkpt>
      <trkpt lat="47.08746" lon="6.18724">
        <ele>345.754425</ele>
        <time>2020-08-22T09:31:55Z</time>
      </trkpt>
      <trkpt lat="47.08794" lon="6.18675">
        <ele>341.947601</ele>
        <time>2020-08-22T09:32:08Z</time>
      </trkpt>
      <trkpt lat="47.0882" lon="6.18642">
        <ele>341.462402</ele>
        <time>2020-08-22T09:32:16Z</time>
      </trkpt>
      <trkpt lat="47.08839" lon="6.1864">
        <ele>342.37085</ele>
        <time>2020-08-22T09:32:21Z</time>
      </trkpt>
      <trkpt lat="47.08865" lon="6.18633">
        <ele>343.286255</ele>
        <time>2020-08-22T09:32:27Z</time>
      </trkpt>
      <trkpt lat="47.08935" lon="6.1862">
        <ele>342.359436</ele>
        <time>2020-08-22T09:32:43Z</time>
      </trkpt>
      <trkpt lat="47.08962" lon="6.18624">
        <ele>342.555206</ele>
        <time>2020-08-22T09:32:50Z</time>
      </trkpt>
      <trkpt lat="47.08979" lon="6.18632">
        <ele>343.924805</ele>
        <time>2020-08-22T09:32:54Z</time>
      </trkpt>
      <trkpt lat="47.09033" lon="6.18558">
        <ele>344.993683</ele>
        <time>2020-08-22T09:33:11Z</time>
      </trkpt>
      <trkpt lat="47.09057" lon="6.18529">
        <ele>345.781219</ele>
        <time>2020-08-22T09:33:18Z</time>
      </trkpt>
      <trkpt lat="47.09117" lon="6.18441">
        <ele>348.062958</ele>
        <time>2020-08-22T09:33:38Z</time>
      </trkpt>
      <trkpt lat="47.09135" lon="6.18421">
        <ele>349.936615</ele>
        <time>2020-08-22T09:33:43Z</time>
      </trkpt>
      <trkpt lat="47.09179" lon="6.18398">
        <ele>356.869995</ele>
        <time>2020-08-22T09:33:54Z</time>
      </trkpt>
      <trkpt lat="47.09197" lon="6.1838">
        <ele>358.726959</ele>
        <time>2020-08-22T09:33:59Z</time>
      </trkpt>
      <trkpt lat="47.09234" lon="6.18334">
        <ele>359.792511</ele>
        <time>2020-08-22T09:34:11Z</time>
      </trkpt>
      <trkpt lat="47.09257" lon="6.18329">
        <ele>362.087921</ele>
        <time>2020-08-22T09:34:16Z</time>
      </trkpt>
      <trkpt lat="47.09274" lon="6.18333">
        <ele>364.395691</ele>
        <time>2020-08-22T09:34:20Z</time>
      </trkpt>
      <trkpt lat="47.09285" lon="6.18341">
        <ele>366.556458</ele>
        <time>2020-08-22T09:34:23Z</time>
      </trkpt>
      <trkpt lat="47.09301" lon="6.18332">
        <ele>368.037872</ele>
        <time>2020-08-22T09:34:27Z</time>
      </trkpt>
      <trkpt lat="47.09341" lon="6.183">
        <ele>368.991852</ele>
        <time>2020-08-22T09:34:38Z</time>
      </trkpt>
      <trkpt lat="47.09382" lon="6.18256">
        <ele>368.676788</ele>
        <time>2020-08-22T09:34:50Z</time>
      </trkpt>
      <trkpt lat="47.09408" lon="6.18234">
        <ele>369.639832</ele>
        <time>2020-08-22T09:34:57Z</time>
      </trkpt>
      <trkpt lat="47.0944" lon="6.18218">
        <ele>370.8302</ele>
        <time>2020-08-22T09:35:05Z</time>
      </trkpt>
      <trkpt lat="47.09476" lon="6.18223">
        <ele>375.29126</ele>
        <time>2020-08-22T09:35:13Z</time>
      </trkpt>
      <trkpt lat="47.09537" lon="6.18216">
        <ele>374.959991</ele>
        <time>2020-08-22T09:35:27Z</time>
      </trkpt>
      <trkpt lat="47.09588" lon="6.18213">
        <ele>373.576569</ele>
        <time>2020-08-22T09:35:39Z</time>
      </trkpt>
      <trkpt lat="47.09654" lon="6.18177">
        <ele>367.883759</ele>
        <time>2020-08-22T09:35:56Z</time>
      </trkpt>
      <trkpt lat="47.09681" lon="6.18156">
        <ele>365.816254</ele>
        <time>2020-08-22T09:36:03Z</time>
      </trkpt>
      <trkpt lat="47.09696" lon="6.18151">
        <ele>365.789551</ele>
        <time>2020-08-22T09:36:06Z</time>
      </trkpt>
      <trkpt lat="47.09778" lon="6.18149">
        <ele>367.544861</ele>
        <time>2020-08-22T09:36:25Z</time>
      </trkpt>
      <trkpt lat="47.09871" lon="6.18155">
        <ele>365.528931</ele>
        <time>2020-08-22T09:36:47Z</time>
      </trkpt>
      <trkpt lat="47.09961" lon="6.18173">
        <ele>364.282776</ele>
        <time>2020-08-22T09:37:08Z</time>
      </trkpt>
      <trkpt lat="47.09988" lon="6.18175">
        <ele>362.322083</ele>
        <time>2020-08-22T09:37:15Z</time>
      </trkpt>
      <trkpt lat="47.10024" lon="6.18183">
        <ele>360.600098</ele>
        <time>2020-08-22T09:37:23Z</time>
      </trkpt>
      <trkpt lat="47.10066" lon="6.18197">
        <ele>358.993378</ele>
        <time>2020-08-22T09:37:33Z</time>
      </trkpt>
      <trkpt lat="47.10159" lon="6.18253">
        <ele>357.093414</ele>
        <time>2020-08-22T09:37:57Z</time>
      </trkpt>
      <trkpt lat="47.10211" lon="6.18316">
        <ele>361.710846</ele>
        <time>2020-08-22T09:38:13Z</time>
      </trkpt>
      <trkpt lat="47.10252" lon="6.18341">
        <ele>361.690033</ele>
        <time>2020-08-22T09:38:23Z</time>
      </trkpt>
      <trkpt lat="47.10278" lon="6.18363">
        <ele>362.482452</ele>
        <time>2020-08-22T09:38:30Z</time>
      </trkpt>
      <trkpt lat="47.10317" lon="6.18389">
        <ele>360.557098</ele>
        <time>2020-08-22T09:38:40Z</time>
      </trkpt>
      <trkpt lat="47.10395" lon="6.18428">
        <ele>359.670105</ele>
        <time>2020-08-22T09:38:59Z</time>
      </trkpt>
      <trkpt lat="47.10566" lon="6.18524">
        <ele>361.134735</ele>
        <time>2020-08-22T09:39:42Z</time>
      </trkpt>
      <trkpt lat="47.10603" lon="6.18542">
        <ele>360.856964</ele>
        <time>2020-08-22T09:39:51Z</time>
      </trkpt>
      <trkpt lat="47.10617" lon="6.18553">
        <ele>361.779907</ele>
        <time>2020-08-22T09:39:55Z</time>
      </trkpt>
      <trkpt lat="47.10632" lon="6.1856">
        <ele>362.125793</ele>
        <time>2020-08-22T09:39:58Z</time>
      </trkpt>
      <trkpt lat="47.10643" lon="6.18556">
        <ele>361.935303</ele>
        <time>2020-08-22T09:40:01Z</time>
      </trkpt>
      <trkpt lat="47.10651" lon="6.18543">
        <ele>361.269989</ele>
        <time>2020-08-22T09:40:04Z</time>
      </trkpt>
      <trkpt lat="47.10654" lon="6.18526">
        <ele>363.068817</ele>
        <time>2020-08-22T09:40:07Z</time>
      </trkpt>
      <trkpt lat="47.10651" lon="6.18514">
        <ele>364.670105</ele>
        <time>2020-08-22T09:40:09Z</time>
      </trkpt>
      <trkpt lat="47.10589" lon="6.18466">
        <ele>365.942505</ele>
        <time>2020-08-22T09:40:25Z</time>
      </trkpt>
      <trkpt lat="47.10497" lon="6.18425">
        <ele>364.970581</ele>
        <time>2020-08-22T09:40:47Z</time>
      </trkpt>
      <trkpt lat="47.10439" lon="6.18393">
        <ele>359.71051</ele>
        <time>2020-08-22T09:41:02Z</time>
      </trkpt>
      <trkpt lat="47.10428" lon="6.18384">
        <ele>360.196228</ele>
        <time>2020-08-22T09:41:05Z</time>
      </trkpt>
      <trkpt lat="47.10399" lon="6.18347">
        <ele>362.971497</ele>
        <time>2020-08-22T09:41:14Z</time>
      </trkpt>
      <trkpt lat="47.1035" lon="6.18301">
        <ele>360.073517</ele>
        <time>2020-08-22T09:41:27Z</time>
      </trkpt>
      <trkpt lat="47.10325" lon="6.18274">
        <ele>359.717804</ele>
        <time>2020-08-22T09:41:35Z</time>
      </trkpt>
      <trkpt lat="47.10259" lon="6.18189">
        <ele>358.846039</ele>
        <time>2020-08-22T09:41:55Z</time>
      </trkpt>
      <trkpt lat="47.10237" lon="6.18176">
        <ele>355.940796</ele>
        <time>2020-08-22T09:42:01Z</time>
      </trkpt>
      <trkpt lat="47.10222" lon="6.18163">
        <ele>356.054871</ele>
        <time>2020-08-22T09:42:05Z</time>
      </trkpt>
      <trkpt lat="47.10159" lon="6.18088">
        <ele>356.354736</ele>
        <time>2020-08-22T09:42:24Z</time>
      </trkpt>
      <trkpt lat="47.10117" lon="6.18061">
        <ele>353.90741</ele>
        <time>2020-08-22T09:42:34Z</time>
      </trkpt>
      <trkpt lat="47.10073" lon="6.1802">
        <ele>353.630341</ele>
        <time>2020-08-22T09:42:47Z</time>
      </trkpt>
      <trkpt lat="47.10054" lon="6.17995">
        <ele>355.203949</ele>
        <time>2020-08-22T09:42:53Z</time>
      </trkpt>
      <trkpt lat="47.10035" lon="6.1798">
        <ele>354.906006</ele>
        <time>2020-08-22T09:42:58Z</time>
      </trkpt>
      <trkpt lat="47.09994" lon="6.17976">
        <ele>351.554932</ele>
        <time>2020-08-22T09:43:07Z</time>
      </trkpt>
      <trkpt lat="47.09966" lon="6.17961">
        <ele>350.68457</ele>
        <time>2020-08-22T09:43:14Z</time>
      </trkpt>
      <trkpt lat="47.09944" lon="6.17939">
        <ele>351.646118</ele>
        <time>2020-08-22T09:43:20Z</time>
      </trkpt>
      <trkpt lat="47.09928" lon="6.17928">
        <ele>351.259338</ele>
        <time>2020-08-22T09:43:24Z</time>
      </trkpt>
      <trkpt lat="47.09874" lon="6.17911">
        <ele>347.453156</ele>
        <time>2020-08-22T09:43:37Z</time>
      </trkpt>
      <trkpt lat="47.09854" lon="6.17895">
        <ele>346.278107</ele>
        <time>2020-08-22T09:43:43Z</time>
      </trkpt>
      <trkpt lat="47.09786" lon="6.17855">
        <ele>342.717987</ele>
        <time>2020-08-22T09:44:00Z</time>
      </trkpt>
      <trkpt lat="47.09766" lon="6.17855">
        <ele>341.812164</ele>
        <time>2020-08-22T09:44:04Z</time>
      </trkpt>
      <trkpt lat="47.09747" lon="6.17864">
        <ele>340.699341</ele>
        <time>2020-08-22T09:44:09Z</time>
      </trkpt>
      <trkpt lat="47.09727" lon="6.17864">
        <ele>340.438538</ele>
        <time>2020-08-22T09:44:14Z</time>
      </trkpt>
      <trkpt lat="47.09695" lon="6.17859">
        <ele>340.202728</ele>
        <time>2020-08-22T09:44:21Z</time>
      </trkpt>
      <trkpt lat="47.09679" lon="6.17835">
        <ele>340.238373</ele>
        <time>2020-08-22T09:44:27Z</time>
      </trkpt>
      <trkpt lat="47.09663" lon="6.17803">
        <ele>340.093994</ele>
        <time>2020-08-22T09:44:33Z</time>
      </trkpt>
      <trkpt lat="47.0965" lon="6.17767">
        <ele>339.93338</ele>
        <time>2020-08-22T09:44:39Z</time>
      </trkpt>
      <trkpt lat="47.09611" lon="6.17618">
        <ele>335.891266</ele>
        <time>2020-08-22T09:45:05Z</time>
      </trkpt>
      <trkpt lat="47.09595" lon="6.17609">
        <ele>335.412506</ele>
        <time>2020-08-22T09:45:09Z</time>
      </trkpt>
      <trkpt lat="47.09598" lon="6.17584">
        <ele>335.538635</ele>
        <time>2020-08-22T09:45:13Z</time>
      </trkpt>
      <trkpt lat="47.09622" lon="6.17515">
        <ele>337.138214</ele>
        <time>2020-08-22T09:45:25Z</time>
      </trkpt>
      <trkpt lat="47.09648" lon="6.17407">
        <ele>340.695007</ele>
        <time>2020-08-22T09:45:43Z</time>
      </trkpt>
      <trkpt lat="47.09667" lon="6.17305">
        <ele>342.011444</ele>
        <time>2020-08-22T09:46:00Z</time>
      </trkpt>
      <trkpt lat="47.0968" lon="6.17252">
        <ele>341.074066</ele>
        <time>2020-08-22T09:46:09Z</time>
      </trkpt>
      <trkpt lat="47.09755" lon="6.1704">
        <ele>341.267487</ele>
        <time>2020-08-22T09:46:47Z</time>
      </trkpt>
      <trkpt lat="47.09802" lon="6.16922">
        <ele>341.009918</ele>
        <time>2020-08-22T09:47:09Z</time>
      </trkpt>
      <trkpt lat="47.09833" lon="6.16854">
        <ele>340.127289</ele>
        <time>2020-08-22T09:47:22Z</time>
      </trkpt>
      <trkpt lat="47.09892" lon="6.16786">
        <ele>340.561249</ele>
        <time>2020-08-22T09:47:39Z</time>
      </trkpt>
      <trkpt lat="47.09959" lon="6.1672">
        <ele>338.977356</ele>
        <time>2020-08-22T09:47:58Z</time>
      </trkpt>
      <trkpt lat="47.10105" lon="6.16593">
        <ele>337.322174</ele>
        <time>2020-08-22T09:48:38Z</time>
      </trkpt>
      <trkpt lat="47.10167" lon="6.16548">
        <ele>337.268738</ele>
        <time>2020-08-22T09:48:54Z</time>
      </trkpt>
      <trkpt lat="47.10226" lon="6.16516">
        <ele>336.8302</ele>
        <time>2020-08-22T09:49:09Z</time>
      </trkpt>
      <trkpt lat="47.10307" lon="6.16478">
        <ele>336.534119</ele>
        <time>2020-08-22T09:49:29Z</time>
      </trkpt>
      <trkpt lat="47.10336" lon="6.16459">
        <ele>336.361298</ele>
        <time>2020-08-22T09:49:36Z</time>
      </trkpt>
      <trkpt lat="47.10363" lon="6.16434">
        <ele>337.163361</ele>
        <time>2020-08-22T09:49:43Z</time>
      </trkpt>
      <trkpt lat="47.10394" lon="6.16385">
        <ele>336.537231</ele>
        <time>2020-08-22T09:49:54Z</time>
      </trkpt>
      <trkpt lat="47.10409" lon="6.16354">
        <ele>336.732788</ele>
        <time>2020-08-22T09:50:00Z</time>
      </trkpt>
      <trkpt lat="47.10428" lon="6.16294">
        <ele>335.214813</ele>
        <time>2020-08-22T09:50:11Z</time>
      </trkpt>
      <trkpt lat="47.10481" lon="6.16034">
        <ele>335.008179</ele>
        <time>2020-08-22T09:50:54Z</time>
      </trkpt>
      <trkpt lat="47.10497" lon="6.15938">
        <ele>332.740631</ele>
        <time>2020-08-22T09:51:09Z</time>
      </trkpt>
      <trkpt lat="47.10498" lon="6.15895">
        <ele>331.564484</ele>
        <time>2020-08-22T09:51:16Z</time>
      </trkpt>
      <trkpt lat="47.10496" lon="6.15857">
        <ele>331.141571</ele>
        <time>2020-08-22T09:51:22Z</time>
      </trkpt>
      <trkpt lat="47.10488" lon="6.15814">
        <ele>331.125</ele>
        <time>2020-08-22T09:51:29Z</time>
      </trkpt>
      <trkpt lat="47.10456" lon="6.15751">
        <ele>332.41449</ele>
        <time>2020-08-22T09:51:42Z</time>
      </trkpt>
      <trkpt lat="47.10456" lon="6.15723">
        <ele>334.909393</ele>
        <time>2020-08-22T09:51:46Z</time>
      </trkpt>
      <trkpt lat="47.10447" lon="6.15664">
        <ele>339.290009</ele>
        <time>2020-08-22T09:51:56Z</time>
      </trkpt>
      <trkpt lat="47.10439" lon="6.15646">
        <ele>340.154999</ele>
        <time>2020-08-22T09:51:59Z</time>
      </trkpt>
      <trkpt lat="47.10432" lon="6.15642">
        <ele>340.209991</ele>
        <time>2020-08-22T09:52:01Z</time>
      </trkpt>
      <trkpt lat="47.10416" lon="6.15657">
        <ele>338.88501</ele>
        <time>2020-08-22T09:52:06Z</time>
      </trkpt>
      <trkpt lat="47.10412" lon="6.15675">
        <ele>337.700012</ele>
        <time>2020-08-22T09:52:09Z</time>
      </trkpt>
      <trkpt lat="47.104" lon="6.15784">
        <ele>331.131714</ele>
        <time>2020-08-22T09:52:26Z</time>
      </trkpt>
      <trkpt lat="47.1037" lon="6.15918">
        <ele>336.167511</ele>
        <time>2020-08-22T09:52:49Z</time>
      </trkpt>
      <trkpt lat="47.10359" lon="6.1595">
        <ele>336.420288</ele>
        <time>2020-08-22T09:52:54Z</time>
      </trkpt>
      <trkpt lat="47.10307" lon="6.16047">
        <ele>335.75354</ele>
        <time>2020-08-22T09:53:14Z</time>
      </trkpt>
      <trkpt lat="47.1028" lon="6.16064">
        <ele>336.317444</ele>
        <time>2020-08-22T09:53:21Z</time>
      </trkpt>
      <trkpt lat="47.10267" lon="6.16064">
        <ele>336.846344</ele>
        <time>2020-08-22T09:53:24Z</time>
      </trkpt>
      <trkpt lat="47.10234" lon="6.16042">
        <ele>338.011261</ele>
        <time>2020-08-22T09:53:32Z</time>
      </trkpt>
      <trkpt lat="47.10209" lon="6.16019">
        <ele>338.907501</ele>
        <time>2020-08-22T09:53:39Z</time>
      </trkpt>
      <trkpt lat="47.1019" lon="6.16009">
        <ele>339.46875</ele>
        <time>2020-08-22T09:53:44Z</time>
      </trkpt>
      <trkpt lat="47.10166" lon="6.16">
        <ele>340.118744</ele>
        <time>2020-08-22T09:53:50Z</time>
      </trkpt>
      <trkpt lat="47.10142" lon="6.16002">
        <ele>340.592499</ele>
        <time>2020-08-22T09:53:55Z</time>
      </trkpt>
      <trkpt lat="47.10109" lon="6.16009">
        <ele>340.356262</ele>
        <time>2020-08-22T09:54:03Z</time>
      </trkpt>
      <trkpt lat="47.10086" lon="6.16023">
        <ele>339.618744</ele>
        <time>2020-08-22T09:54:09Z</time>
      </trkpt>
      <trkpt lat="47.10083" lon="6.16046">
        <ele>339.217499</ele>
        <time>2020-08-22T09:54:13Z</time>
      </trkpt>
      <trkpt lat="47.10103" lon="6.1609">
        <ele>339.27359</ele>
        <time>2020-08-22T09:54:21Z</time>
      </trkpt>
      <trkpt lat="47.10131" lon="6.16157">
        <ele>338.352509</ele>
      </trkpt>
      <trkpt lat="47.10162" lon="6.16164">
        <ele>337.588745</ele>
      </trkpt>
      <trkpt lat="47.10179" lon="6.16175">
        <ele>336.795013</ele>
        <time>2020-08-22T08:00:06Z</time>
      </trkpt>
      <trkpt lat="47.10183" lon="6.16194">
        <ele>336.301239</ele>
        <time>2020-08-22T08:00:09Z</time>
      </trkpt>
      <trkpt lat="47.10181" lon="6.16222">
        <ele>335.537506</ele>
        <time>2020-08-22T08:00:14Z</time>
      </trkpt>
      <trkpt lat="47.10165" lon="6.16249">
        <ele>335.355011</ele>
        <time>2020-08-22T08:00:19Z</time>
      </trkpt>
      <trkpt lat="47.10144" lon="6.16254">
        <ele>335.632507</ele>
        <time>2020-08-22T08:00:24Z</time>
      </trkpt>
      <trkpt lat="47.10136" lon="6.16249">
        <ele>335.94751</ele>
        <time>2020-08-22T08:00:26Z</time>
      </trkpt>
      <trkpt lat="47.10127" lon="6.16247">
        <ele>336.1875</ele>
        <time>2020-08-22T08:00:28Z</time>
      </trkpt>
      <trkpt lat="47.10105" lon="6.16268">
        <ele>335.980011</ele>
        <time>2020-08-22T08:00:35Z</time>
      </trkpt>
      <trkpt lat="47.10096" lon="6.16274">
        <ele>335.972504</ele>
        <time>2020-08-22T08:00:37Z</time>
      </trkpt>
      <trkpt lat="47.10075" lon="6.16282">
        <ele>336.144989</ele>
        <time>2020-08-22T08:00:42Z</time>
      </trkpt>
      <trkpt lat="47.10057" lon="6.16298">
        <ele>335.893738</ele>
        <time>2020-08-22T08:00:47Z</time>
      </trkpt>
      <trkpt lat="47.09894" lon="6.1646">
        <ele>335.550018</ele>
        <time>2020-08-22T08:01:33Z</time>
      </trkpt>
      <trkpt lat="47.09838" lon="6.16521">
        <ele>335.808746</ele>
        <time>2020-08-22T08:01:49Z</time>
      </trkpt>
      <trkpt lat="47.09626" lon="6.16735">
        <ele>338.834991</ele>
        <time>2020-08-22T08:02:49Z</time>
      </trkpt>
      <trkpt lat="47.09548" lon="6.16809">
        <ele>339.00769</ele>
        <time>2020-08-22T08:03:11Z</time>
      </trkpt>
      <trkpt lat="47.09521" lon="6.16841">
        <ele>338.513763</ele>
        <time>2020-08-22T08:03:19Z</time>
      </trkpt>
      <trkpt lat="47.09477" lon="6.16883">
        <ele>338</ele>
        <time>2020-08-22T08:03:31Z</time>
      </trkpt>
      <trkpt lat="47.09467" lon="6.16898">
        <ele>338</ele>
        <time>2020-08-22T08:03:35Z</time>
      </trkpt>
      <trkpt lat="47.09456" lon="6.16896">
        <ele>338</ele>
        <time>2020-08-22T08:03:37Z</time>
      </trkpt>
      <trkpt lat="47.09437" lon="6.16885">
        <ele>338</ele>
        <time>2020-08-22T08:03:42Z</time>
      </trkpt>
      <trkpt lat="47.09384" lon="6.16829">
        <ele>339.042999</ele>
        <time>2020-08-22T08:03:57Z</time>
      </trkpt>
      <trkpt lat="47.09361" lon="6.168">
        <ele>340.359985</ele>
        <time>2020-08-22T08:04:04Z</time>
      </trkpt>
      <trkpt lat="47.09353" lon="6.16806">
        <ele>340.334991</ele>
        <time>2020-08-22T08:04:06Z</time>
      </trkpt>
      <trkpt lat="47.09338" lon="6.16825">
        <ele>340.044983</ele>
        <time>2020-08-22T08:04:11Z</time>
      </trkpt>
      <trkpt lat="47.09279" lon="6.16886">
        <ele>339.195007</ele>
        <time>2020-08-22T08:04:28Z</time>
      </trkpt>
      <trkpt lat="47.0925" lon="6.16982">
        <ele>341.184875</ele>
        <time>2020-08-22T08:04:44Z</time>
      </trkpt>
      <trkpt lat="47.09215" lon="6.17063">
        <ele>342.200012</ele>
        <time>2020-08-22T08:05:00Z</time>
      </trkpt>
      <trkpt lat="47.0919" lon="6.17195">
        <ele>337.204407</ele>
        <time>2020-08-22T08:05:22Z</time>
      </trkpt>
      <trkpt lat="47.0918" lon="6.17215">
        <ele>337.742737</ele>
        <time>2020-08-22T08:05:25Z</time>
      </trkpt>
      <trkpt lat="47.0915" lon="6.17257">
        <ele>338.934814</ele>
        <time>2020-08-22T08:05:35Z</time>
      </trkpt>
      <trkpt lat="47.09031" lon="6.17438">
        <ele>342.822998</ele>
        <time>2020-08-22T08:06:15Z</time>
      </trkpt>
      <trkpt lat="47.0898" lon="6.1752">
        <ele>343.049652</ele>
        <time>2020-08-22T08:06:33Z</time>
      </trkpt>
      <trkpt lat="47.08927" lon="6.17629">
        <ele>341.331879</ele>
        <time>2020-08-22T08:06:54Z</time>
      </trkpt>
      <trkpt lat="47.08845" lon="6.17827">
        <ele>341.046051</ele>
        <time>2020-08-22T08:07:31Z</time>
      </trkpt>
      <trkpt lat="47.08795" lon="6.17921">
        <ele>340.529053</ele>
        <time>2020-08-22T08:07:50Z</time>
      </trkpt>
      <trkpt lat="47.08711" lon="6.18024">
        <ele>338.098053</ele>
        <time>2020-08-22T08:08:15Z</time>
      </trkpt>
      <trkpt lat="47.08679" lon="6.18056">
        <ele>338.706055</ele>
        <time>2020-08-22T08:08:25Z</time>
      </trkpt>
      <trkpt lat="47.08589" lon="6.18121">
        <ele>339.56601</ele>
        <time>2020-08-22T08:08:48Z</time>
      </trkpt>
      <trkpt lat="47.08534" lon="6.18153">
        <ele>341.122009</ele>
        <time>2020-08-22T08:09:02Z</time>
      </trkpt>
      <trkpt lat="47.08365" lon="6.18238">
        <ele>344.882507</ele>
        <time>2020-08-22T08:09:43Z</time>
      </trkpt>
      <trkpt lat="47.08302" lon="6.18278">
        <ele>345.182037</ele>
        <time>2020-08-22T08:10:00Z</time>
      </trkpt>
      <trkpt lat="47.08234" lon="6.18325">
        <ele>343.223053</ele>
        <time>2020-08-22T08:10:17Z</time>
      </trkpt>
      <trkpt lat="47.08201" lon="6.18367">
        <ele>341.390015</ele>
        <time>2020-08-22T08:10:27Z</time>
      </trkpt>
      <trkpt lat="47.08186" lon="6.18364">
        <ele>347.088837</ele>
        <time>2020-08-22T08:10:31Z</time>
      </trkpt>
      <trkpt lat="47.08174" lon="6.18382">
        <ele>349.065002</ele>
        <time>2020-08-22T08:10:35Z</time>
      </trkpt>
      <trkpt lat="47.08136" lon="6.18468">
        <ele>348.556</ele>
        <time>2020-08-22T08:10:51Z</time>
      </trkpt>
      <trkpt lat="47.0809" lon="6.18554">
        <ele>345.560791</ele>
        <time>2020-08-22T08:11:08Z</time>
      </trkpt>
      <trkpt lat="47.08085" lon="6.18573">
        <ele>344.717194</ele>
        <time>2020-08-22T08:11:12Z</time>
      </trkpt>
      <trkpt lat="47.08069" lon="6.18597">
        <ele>343.867218</ele>
        <time>2020-08-22T08:11:17Z</time>
      </trkpt>
      <trkpt lat="47.08036" lon="6.18636">
        <ele>342.048737</ele>
        <time>2020-08-22T08:11:27Z</time>
      </trkpt>
      <trkpt lat="47.0805" lon="6.18654">
        <ele>340.203918</ele>
        <time>2020-08-22T08:11:31Z</time>
      </trkpt>
      <trkpt lat="47.08074" lon="6.18677">
        <ele>339.459229</ele>
        <time>2020-08-22T08:11:38Z</time>
      </trkpt>
      <trkpt lat="47.08112" lon="6.1873">
        <ele>340.40625</ele>
        <time>2020-08-22T08:11:50Z</time>
      </trkpt>
      <trkpt lat="47.08126" lon="6.18814">
        <ele>340.952759</ele>
        <time>2020-08-22T08:12:04Z</time>
      </trkpt>
      <trkpt lat="47.08146" lon="6.18996">
        <ele>341.978119</ele>
        <time>2020-08-22T08:12:33Z</time>
      </trkpt>
      <trkpt lat="47.08153" lon="6.19015">
        <ele>342.148865</ele>
        <time>2020-08-22T08:12:37Z</time>
      </trkpt>
      <trkpt lat="47.08174" lon="6.19024">
        <ele>341.421661</ele>
        <time>2020-08-22T08:12:42Z</time>
      </trkpt>
      <trkpt lat="47.08227" lon="6.19026">
        <ele>341.06604</ele>
        <time>2020-08-22T08:12:54Z</time>
      </trkpt>
      <trkpt lat="47.08253" lon="6.19025">
        <ele>341.589874</ele>
        <time>2020-08-22T08:13:00Z</time>
      </trkpt>
      <trkpt lat="47.08302" lon="6.19014">
        <ele>342.222504</ele>
        <time>2020-08-22T08:13:12Z</time>
      </trkpt>
      <trkpt lat="47.08321" lon="6.19017">
        <ele>342.582489</ele>
        <time>2020-08-22T08:13:16Z</time>
      </trkpt>
      <trkpt lat="47.08335" lon="6.19027">
        <ele>342.855011</ele>
        <time>2020-08-22T08:13:20Z</time>
      </trkpt>
      <trkpt lat="47.08364" lon="6.19037">
        <ele>343.674622</ele>
        <time>2020-08-22T08:13:27Z</time>
      </trkpt>
      <trkpt lat="47.0839" lon="6.19039">
        <ele>346.648987</ele>
        <time>2020-08-22T08:13:33Z</time>
      </trkpt>
      <trkpt lat="47.08411" lon="6.19022">
        <ele>347.549194</ele>
        <time>2020-08-22T08:13:39Z</time>
      </trkpt>
      <trkpt lat="47.08449" lon="6.19">
        <ele>350.575867</ele>
        <time>2020-08-22T08:13:48Z</time>
      </trkpt>
      <trkpt lat="47.08466" lon="6.1898">
        <ele>351.080017</ele>
        <time>2020-08-22T08:13:53Z</time>
      </trkpt>
      <trkpt lat="47.08491" lon="6.18957">
        <ele>352.675812</ele>
        <time>2020-08-22T08:14:00Z</time>
      </trkpt>
      <trkpt lat="47.08509" lon="6.18944">
        <ele>353.467804</ele>
        <time>2020-08-22T08:14:05Z</time>
      </trkpt>
      <trkpt lat="47.08549" lon="6.18924">
        <ele>357.170654</ele>
        <time>2020-08-22T08:14:15Z</time>
      </trkpt>
      <trkpt lat="47.08642" lon="6.18854">
        <ele>362.739197</ele>
        <time>2020-08-22T08:14:39Z</time>
      </trkpt>
      <trkpt lat="47.08697" lon="6.18825">
        <ele>365.189606</ele>
        <time>2020-08-22T08:14:53Z</time>
      </trkpt>
      <trkpt lat="47.08761" lon="6.18815">
        <ele>369.064423</ele>
        <time>2020-08-22T08:15:08Z</time>
      </trkpt>
      <trkpt lat="47.08788" lon="6.18819">
        <ele>371.13739</ele>
        <time>2020-08-22T08:15:14Z</time>
      </trkpt>
      <trkpt lat="47.08815" lon="6.18829">
        <ele>374.721771</ele>
        <time>2020-08-22T08:15:21Z</time>
      </trkpt>
      <trkpt lat="47.08862" lon="6.18848">
        <ele>376.581238</ele>
        <time>2020-08-22T08:15:32Z</time>
      </trkpt>
      <trkpt lat="47.08901" lon="6.18881">
        <ele>376.255737</ele>
        <time>2020-08-22T08:15:43Z</time>
      </trkpt>
      <trkpt lat="47.08928" lon="6.18914">
        <ele>376.37796</ele>
        <time>2020-08-22T08:15:51Z</time>
      </trkpt>
      <trkpt lat="47.08994" lon="6.19046">
        <ele>376.065094</ele>
        <time>2020-08-22T08:16:17Z</time>
      </trkpt>
      <trkpt lat="47.09021" lon="6.19094">
        <ele>376.746552</ele>
        <time>2020-08-22T08:16:27Z</time>
      </trkpt>
      <trkpt lat="47.09062" lon="6.19147">
        <ele>372.990112</ele>
        <time>2020-08-22T08:16:39Z</time>
      </trkpt>
      <trkpt lat="47.09081" lon="6.1919">
        <ele>372.735016</ele>
        <time>2020-08-22T08:16:48Z</time>
      </trkpt>
      <trkpt lat="47.09095" lon="6.19233">
        <ele>373.131653</ele>
        <time>2020-08-22T08:16:55Z</time>
      </trkpt>
      <trkpt lat="47.09134" lon="6.19323">
        <ele>371.80069</ele>
        <time>2020-08-22T08:17:12Z</time>
      </trkpt>
      <trkpt lat="47.09147" lon="6.19346">
        <ele>370.526245</ele>
        <time>2020-08-22T08:17:17Z</time>
      </trkpt>
      <trkpt lat="47.09206" lon="6.19429">
        <ele>369.379761</ele>
        <time>2020-08-22T08:17:36Z</time>
      </trkpt>
      <trkpt lat="47.09252" lon="6.19486">
        <ele>372.264404</ele>
        <time>2020-08-22T08:17:50Z</time>
      </trkpt>
      <trkpt lat="47.09278" lon="6.19506">
        <ele>374.192261</ele>
        <time>2020-08-22T08:17:57Z</time>
      </trkpt>
      <trkpt lat="47.09348" lon="6.19528">
        <ele>379.199493</ele>
        <time>2020-08-22T08:18:14Z</time>
      </trkpt>
      <trkpt lat="47.09417" lon="6.19556">
        <ele>382.98468</ele>
        <time>2020-08-22T08:18:30Z</time>
      </trkpt>
      <trkpt lat="47.09455" lon="6.19567">
        <ele>383.627533</ele>
        <time>2020-08-22T08:18:39Z</time>
      </trkpt>
      <trkpt lat="47.09542" lon="6.19586">
        <ele>382.731506</ele>
        <time>2020-08-22T08:19:00Z</time>
      </trkpt>
      <trkpt lat="47.0955" lon="6.19579">
        <ele>381.378113</ele>
        <time>2020-08-22T08:19:02Z</time>
      </trkpt>
      <trkpt lat="47.09557" lon="6.19561">
        <ele>383.726624</ele>
        <time>2020-08-22T08:19:05Z</time>
      </trkpt>
      <trkpt lat="47.09563" lon="6.19554">
        <ele>385.093536</ele>
        <time>2020-08-22T08:19:07Z</time>
      </trkpt>
      <trkpt lat="47.09625" lon="6.19551">
        <ele>390.925476</ele>
        <time>2020-08-22T08:19:22Z</time>
      </trkpt>
      <trkpt lat="47.09649" lon="6.19554">
        <ele>392.612488</ele>
        <time>2020-08-22T08:19:27Z</time>
      </trkpt>
      <trkpt lat="47.09673" lon="6.19567">
        <ele>392.161255</ele>
        <time>2020-08-22T08:19:33Z</time>
      </trkpt>
      <trkpt lat="47.09704" lon="6.19576">
        <ele>394.115234</ele>
        <time>2020-08-22T08:19:41Z</time>
      </trkpt>
      <trkpt lat="47.09725" lon="6.19588">
        <ele>396.010986</ele>
        <time>2020-08-22T08:19:46Z</time>
      </trkpt>
      <trkpt lat="47.09773" lon="6.19628">
        <ele>399.1315</ele>
        <time>2020-08-22T08:19:59Z</time>
      </trkpt>
      <trkpt lat="47.09825" lon="6.19637">
        <ele>404.621643</ele>
        <time>2020-08-22T08:20:11Z</time>
      </trkpt>
      <trkpt lat="47.09899" lon="6.1964">
        <ele>410.93399</ele>
        <time>2020-08-22T08:20:28Z</time>
      </trkpt>
      <trkpt lat="47.09978" lon="6.1964">
        <ele>416.767731</ele>
        <time>2020-08-22T08:20:47Z</time>
      </trkpt>
      <trkpt lat="47.10021" lon="6.19608">
        <ele>421.454651</ele>
        <time>2020-08-22T08:20:58Z</time>
      </trkpt>
      <trkpt lat="47.10065" lon="6.19597">
        <ele>426.300079</ele>
        <time>2020-08-22T08:21:08Z</time>
      </trkpt>
      <trkpt lat="47.10069" lon="6.19584">
        <ele>430.509491</ele>
        <time>2020-08-22T08:21:11Z</time>
      </trkpt>
      <trkpt lat="47.10064" lon="6.19577">
        <ele>431.980225</ele>
        <time>2020-08-22T08:21:12Z</time>
      </trkpt>
      <trkpt lat="47.10042" lon="6.19577">
        <ele>432.285767</ele>
        <time>2020-08-22T08:21:17Z</time>
      </trkpt>
      <trkpt lat="47.10019" lon="6.19579">
        <ele>433.69696</ele>
        <time>2020-08-22T08:21:23Z</time>
      </trkpt>
      <trkpt lat="47.09996" lon="6.1959">
        <ele>431.149292</ele>
        <time>2020-08-22T08:21:28Z</time>
      </trkpt>
      <trkpt lat="47.09936" lon="6.19589">
        <ele>433.411011</ele>
        <time>2020-08-22T08:21:42Z</time>
      </trkpt>
      <trkpt lat="47.09897" lon="6.19576">
        <ele>434.479401</ele>
        <time>2020-08-22T08:21:52Z</time>
      </trkpt>
      <trkpt lat="47.09835" lon="6.19547">
        <ele>433.714233</ele>
        <time>2020-08-22T08:22:07Z</time>
      </trkpt>
      <trkpt lat="47.09802" lon="6.19515">
        <ele>432.709686</ele>
        <time>2020-08-22T08:22:16Z</time>
      </trkpt>
      <trkpt lat="47.0979" lon="6.19483">
        <ele>434.305695</ele>
        <time>2020-08-22T08:22:22Z</time>
      </trkpt>
      <trkpt lat="47.09787" lon="6.19459">
        <ele>436.438232</ele>
        <time>2020-08-22T08:22:26Z</time>
      </trkpt>
      <trkpt lat="47.09788" lon="6.19377">
        <ele>440.266266</ele>
        <time>2020-08-22T08:22:39Z</time>
      </trkpt>
      <trkpt lat="47.09792" lon="6.19338">
        <ele>441.268311</ele>
        <time>2020-08-22T08:22:45Z</time>
      </trkpt>
      <trkpt lat="47.09801" lon="6.19295">
        <ele>443.50116</ele>
        <time>2020-08-22T08:22:52Z</time>
      </trkpt>
      <trkpt lat="47.09823" lon="6.19224">
        <ele>452.26474</ele>
        <time>2020-08-22T08:23:05Z</time>
      </trkpt>
      <trkpt lat="47.09819" lon="6.19206">
        <ele>452.921997</ele>
        <time>2020-08-22T08:23:08Z</time>
      </trkpt>
      <trkpt lat="47.09806" lon="6.19197">
        <ele>454.341309</ele>
        <time>2020-08-22T08:23:11Z</time>
      </trkpt>
      <trkpt lat="47.09792" lon="6.19196">
        <ele>455.019897</ele>
        <time>2020-08-22T08:23:14Z</time>
      </trkpt>
      <trkpt lat="47.09777" lon="6.19203">
        <ele>456.097504</ele>
        <time>2020-08-22T08:23:18Z</time>
      </trkpt>
      <trkpt lat="47.09691" lon="6.19272">
        <ele>461.658234</ele>
        <time>2020-08-22T08:23:41Z</time>
      </trkpt>
      <trkpt lat="47.09658" lon="6.19311">
        <ele>466.400513</ele>
        <time>2020-08-22T08:23:51Z</time>
      </trkpt>
      <trkpt lat="47.09636" lon="6.19344">
        <ele>461.041138</ele>
        <time>2020-08-22T08:23:58Z</time>
      </trkpt>
      <trkpt lat="47.09624" lon="6.19356">
        <ele>458.648743</ele>
        <time>2020-08-22T08:24:02Z</time>
      </trkpt>
      <trkpt lat="47.09609" lon="6.19359">
        <ele>459.47876</ele>
        <time>2020-08-22T08:24:05Z</time>
      </trkpt>
      <trkpt lat="47.09594" lon="6.19358">
        <ele>457.812103</ele>
        <time>2020-08-22T08:24:09Z</time>
      </trkpt>
      <trkpt lat="47.09552" lon="6.19331">
        <ele>462.677002</ele>
        <time>2020-08-22T08:24:19Z</time>
      </trkpt>
      <trkpt lat="47.0953" lon="6.19309">
        <ele>466.53717</ele>
        <time>2020-08-22T08:24:26Z</time>
      </trkpt>
      <trkpt lat="47.09451" lon="6.19215">
        <ele>474.621521</ele>
        <time>2020-08-22T08:24:49Z</time>
      </trkpt>
      <trkpt lat="47.09434" lon="6.19183">
        <ele>476.005432</ele>
        <time>2020-08-22T08:24:56Z</time>
      </trkpt>
      <trkpt lat="47.09416" lon="6.19112">
        <ele>478.690002</ele>
        <time>2020-08-22T08:25:08Z</time>
      </trkpt>
      <trkpt lat="47.09409" lon="6.19064">
        <ele>477.522369</ele>
        <time>2020-08-22T08:25:16Z</time>
      </trkpt>
      <trkpt lat="47.09403" lon="6.18995">
        <ele>478.204681</ele>
        <time>2020-08-22T08:25:27Z</time>
      </trkpt>
      <trkpt lat="47.09397" lon="6.18974">
        <ele>477.904053</ele>
        <time>2020-08-22T08:25:30Z</time>
      </trkpt>
      <trkpt lat="47.09383" lon="6.18943">
        <ele>477.632507</ele>
        <time>2020-08-22T08:25:36Z</time>
      </trkpt>
      <trkpt lat="47.09361" lon="6.1888">
        <ele>480.741913</ele>
        <time>2020-08-22T08:25:47Z</time>
      </trkpt>
      <trkpt lat="47.09354" lon="6.18846">
        <ele>482.117798</ele>
        <time>2020-08-22T08:25:53Z</time>
      </trkpt>
      <trkpt lat="47.09346" lon="6.18784">
        <ele>484.05249</ele>
        <time>2020-08-22T08:26:03Z</time>
      </trkpt>
      <trkpt lat="47.09344" lon="6.18741">
        <ele>483.815796</ele>
        <time>2020-08-22T08:26:10Z</time>
      </trkpt>
      <trkpt lat="47.09349" lon="6.18686">
        <ele>483.170532</ele>
        <time>2020-08-22T08:26:19Z</time>
      </trkpt>
      <trkpt lat="47.09365" lon="6.18597">
        <ele>478.95636</ele>
        <time>2020-08-22T08:26:33Z</time>
      </trkpt>
      <trkpt lat="47.09423" lon="6.18511">
        <ele>472.692169</ele>
        <time>2020-08-22T08:26:53Z</time>
      </trkpt>
      <trkpt lat="47.09445" lon="6.18497">
        <ele>468.61795</ele>
        <time>2020-08-22T08:26:58Z</time>
      </trkpt>
      <trkpt lat="47.09493" lon="6.18486">
        <ele>464.487488</ele>
        <time>2020-08-22T08:27:10Z</time>
      </trkpt>
      <trkpt lat="47.09513" lon="6.18486">
        <ele>463.388397</ele>
        <time>2020-08-22T08:27:14Z</time>
      </trkpt>
      <trkpt lat="47.09612" lon="6.18505">
        <ele>459.564514</ele>
        <time>2020-08-22T08:27:38Z</time>
      </trkpt>
      <trkpt lat="47.09616" lon="6.18513">
        <ele>462.003876</ele>
        <time>2020-08-22T08:27:39Z</time>
      </trkpt>
      <trkpt lat="47.09631" lon="6.18529">
        <ele>466.491211</ele>
        <time>2020-08-22T08:27:44Z</time>
      </trkpt>
      <trkpt lat="47.09649" lon="6.18538">
        <ele>468.525085</ele>
        <time>2020-08-22T08:27:48Z</time>
      </trkpt>
      <trkpt lat="47.09693" lon="6.18543">
        <ele>470.056793</ele>
        <time>2020-08-22T08:27:58Z</time>
      </trkpt>
      <trkpt lat="47.09733" lon="6.18541">
        <ele>471.060974</ele>
        <time>2020-08-22T08:28:08Z</time>
      </trkpt>
      <trkpt lat="47.09785" lon="6.18522">
        <ele>470.307434</ele>
        <time>2020-08-22T08:28:20Z</time>
      </trkpt>
      <trkpt lat="47.0987" lon="6.18472">
        <ele>470.679993</ele>
        <time>2020-08-22T08:28:42Z</time>
      </trkpt>
      <trkpt lat="47.09925" lon="6.18446">
        <ele>467.075317</ele>
        <time>2020-08-22T08:28:55Z</time>
      </trkpt>
      <trkpt lat="47.09964" lon="6.18437">
        <ele>464.403259</ele>
        <time>2020-08-22T08:29:04Z</time>
      </trkpt>
      <trkpt lat="47.09996" lon="6.18446">
        <ele>466.178009</ele>
        <time>2020-08-22T08:29:12Z</time>
      </trkpt>
      <trkpt lat="47.10074" lon="6.18497">
        <ele>468.72171</ele>
        <time>2020-08-22T08:29:32Z</time>
      </trkpt>
      <trkpt lat="47.10177" lon="6.18589">
        <ele>468.741211</ele>
        <time>2020-08-22T08:30:00Z</time>
      </trkpt>
      <trkpt lat="47.10221" lon="6.18625">
        <ele>467.285828</ele>
        <time>2020-08-22T08:30:12Z</time>
      </trkpt>
      <trkpt lat="47.10278" lon="6.18666">
        <ele>469.85675</ele>
        <time>2020-08-22T08:30:26Z</time>
      </trkpt>
      <trkpt lat="47.10319" lon="6.18675">
        <ele>464.809998</ele>
        <time>2020-08-22T08:30:36Z</time>
      </trkpt>
      <trkpt lat="47.10371" lon="6.18705">
        <ele>465.962769</ele>
        <time>2020-08-22T08:30:49Z</time>
      </trkpt>
      <trkpt lat="47.1048" lon="6.18759">
        <ele>468.163849</ele>
        <time>2020-08-22T08:31:16Z</time>
      </trkpt>
      <trkpt lat="47.10619" lon="6.18819">
        <ele>462.498383</ele>
        <time>2020-08-22T08:31:50Z</time>
      </trkpt>
      <trkpt lat="47.10697" lon="6.1883">
        <ele>459.377167</ele>
        <time>2020-08-22T08:32:08Z</time>
      </trkpt>
      <trkpt lat="47.10778" lon="6.18912">
        <ele>463.410889</ele>
        <time>2020-08-22T08:32:31Z</time>
      </trkpt>
      <trkpt lat="47.10796" lon="6.18942">
        <ele>463.814972</ele>
        <time>2020-08-22T08:32:38Z</time>
      </trkpt>
      <trkpt lat="47.10827" lon="6.19016">
        <ele>453.588104</ele>
        <time>2020-08-22T08:32:51Z</time>
      </trkpt>
      <trkpt lat="47.10856" lon="6.19057">
        <ele>449.368652</ele>
        <time>2020-08-22T08:33:01Z</time>
      </trkpt>
      <trkpt lat="47.10875" lon="6.19113">
        <ele>452.799988</ele>
        <time>2020-08-22T08:33:11Z</time>
      </trkpt>
      <trkpt lat="47.10889" lon="6.19177">
        <ele>458.497406</ele>
        <time>2020-08-22T08:33:21Z</time>
      </trkpt>
      <trkpt lat="47.10892" lon="6.19259">
        <ele>464.669983</ele>
        <time>2020-08-22T08:33:34Z</time>
      </trkpt>
      <trkpt lat="47.10891" lon="6.19318">
        <ele>465.399109</ele>
        <time>2020-08-22T08:33:44Z</time>
      </trkpt>
      <trkpt lat="47.10881" lon="6.19403">
        <ele>469.152374</ele>
        <time>2020-08-22T08:33:58Z</time>
      </trkpt>
      <trkpt lat="47.10879" lon="6.19459">
        <ele>467.108185</ele>
        <time>2020-08-22T08:34:06Z</time>
      </trkpt>
      <trkpt lat="47.10887" lon="6.1953">
        <ele>462.622498</ele>
        <time>2020-08-22T08:34:18Z</time>
      </trkpt>
      <trkpt lat="47.10903" lon="6.19585">
        <ele>455.170013</ele>
        <time>2020-08-22T08:34:27Z</time>
      </trkpt>
      <trkpt lat="47.1092" lon="6.1963">
        <ele>448.855652</ele>
        <time>2020-08-22T08:34:36Z</time>
      </trkpt>
      <trkpt lat="47.10951" lon="6.19685">
        <ele>441.619263</ele>
        <time>2020-08-22T08:34:47Z</time>
      </trkpt>
      <trkpt lat="47.10998" lon="6.19782">
        <ele>439.690643</ele>
        <time>2020-08-22T08:35:06Z</time>
      </trkpt>
      <trkpt lat="47.11" lon="6.19848">
        <ele>447.750214</ele>
        <time>2020-08-22T08:35:16Z</time>
      </trkpt>
      <trkpt lat="47.10998" lon="6.19923">
        <ele>456.868805</ele>
        <time>2020-08-22T08:35:28Z</time>
      </trkpt>
      <trkpt lat="47.10987" lon="6.20008">
        <ele>472.582306</ele>
        <time>2020-08-22T08:35:42Z</time>
      </trkpt>
      <trkpt lat="47.10977" lon="6.20114">
        <ele>480.302338</ele>
        <time>2020-08-22T08:35:59Z</time>
      </trkpt>
      <trkpt lat="47.10967" lon="6.203">
        <ele>478.009003</ele>
        <time>2020-08-22T08:36:29Z</time>
      </trkpt>
      <trkpt lat="47.10959" lon="6.20326">
        <ele>476.553802</ele>
        <time>2020-08-22T08:36:33Z</time>
      </trkpt>
      <trkpt lat="47.1093" lon="6.20358">
        <ele>481.096588</ele>
        <time>2020-08-22T08:36:42Z</time>
      </trkpt>
      <trkpt lat="47.10905" lon="6.20371">
        <ele>484.165619</ele>
        <time>2020-08-22T08:36:48Z</time>
      </trkpt>
      <trkpt lat="47.1094" lon="6.20318">
        <ele>487.097992</ele>
        <time>2020-08-22T08:37:00Z</time>
      </trkpt>
      <trkpt lat="47.10949" lon="6.20286">
        <ele>488.816467</ele>
        <time>2020-08-22T08:37:05Z</time>
      </trkpt>
      <trkpt lat="47.10949" lon="6.20247">
        <ele>491.984344</ele>
        <time>2020-08-22T08:37:11Z</time>
      </trkpt>
      <trkpt lat="47.10939" lon="6.20203">
        <ele>498.398804</ele>
        <time>2020-08-22T08:37:19Z</time>
      </trkpt>
      <trkpt lat="47.10933" lon="6.20161">
        <ele>503.130157</ele>
        <time>2020-08-22T08:37:26Z</time>
      </trkpt>
      <trkpt lat="47.10926" lon="6.20067">
        <ele>507.042511</ele>
        <time>2020-08-22T08:37:41Z</time>
      </trkpt>
      <trkpt lat="47.10908" lon="6.19995">
        <ele>509.321991</ele>
        <time>2020-08-22T08:37:53Z</time>
      </trkpt>
      <trkpt lat="47.10888" lon="6.19943">
        <ele>511.758087</ele>
        <time>2020-08-22T08:38:02Z</time>
      </trkpt>
      <trkpt lat="47.10795" lon="6.19744">
        <ele>517.106628</ele>
        <time>2020-08-22T08:38:41Z</time>
      </trkpt>
      <trkpt lat="47.10768" lon="6.19681">
        <ele>522.294556</ele>
        <time>2020-08-22T08:38:52Z</time>
      </trkpt>
      <trkpt lat="47.10754" lon="6.19701">
        <ele>526.539063</ele>
        <time>2020-08-22T08:38:57Z</time>
      </trkpt>
      <trkpt lat="47.10749" lon="6.19758">
        <ele>528.443359</ele>
        <time>2020-08-22T08:39:06Z</time>
      </trkpt>
      <trkpt lat="47.10731" lon="6.19861">
        <ele>532.923401</ele>
        <time>2020-08-22T08:39:23Z</time>
      </trkpt>
      <trkpt lat="47.10707" lon="6.19887">
        <ele>534.442444</ele>
        <time>2020-08-22T08:39:30Z</time>
      </trkpt>
      <trkpt lat="47.10686" lon="6.19902">
        <ele>534.444336</ele>
        <time>2020-08-22T08:39:35Z</time>
      </trkpt>
      <trkpt lat="47.10679" lon="6.20067">
        <ele>542.825012</ele>
        <time>2020-08-22T08:40:02Z</time>
      </trkpt>
      <trkpt lat="47.10672" lon="6.20116">
        <ele>545.705017</ele>
        <time>2020-08-22T08:40:10Z</time>
      </trkpt>
      <trkpt lat="47.10661" lon="6.20154">
        <ele>548.838379</ele>
        <time>2020-08-22T08:40:16Z</time>
      </trkpt>
      <trkpt lat="47.1055" lon="6.20286">
        <ele>561.640076</ele>
        <time>2020-08-22T08:40:50Z</time>
      </trkpt>
      <trkpt lat="47.10537" lon="6.20313">
        <ele>563.820007</ele>
        <time>2020-08-22T08:40:55Z</time>
      </trkpt>
      <trkpt lat="47.1053" lon="6.20352">
        <ele>566.345032</ele>
        <time>2020-08-22T08:41:01Z</time>
      </trkpt>
      <trkpt lat="47.10528" lon="6.2039">
        <ele>568.844177</ele>
        <time>2020-08-22T08:41:07Z</time>
      </trkpt>
      <trkpt lat="47.10532" lon="6.20429">
        <ele>571.49054</ele>
        <time>2020-08-22T08:41:14Z</time>
      </trkpt>
      <trkpt lat="47.10545" lon="6.20476">
        <ele>574.356812</ele>
        <time>2020-08-22T08:41:22Z</time>
      </trkpt>
      <trkpt lat="47.10548" lon="6.2051">
        <ele>577.003723</ele>
        <time>2020-08-22T08:41:27Z</time>
      </trkpt>
      <trkpt lat="47.10537" lon="6.20539">
        <ele>578.649353</ele>
        <time>2020-08-22T08:41:32Z</time>
      </trkpt>
      <trkpt lat="47.10497" lon="6.20609">
        <ele>581.150574</ele>
        <time>2020-08-22T08:41:47Z</time>
      </trkpt>
      <trkpt lat="47.10409" lon="6.20843">
        <ele>588.460083</ele>
        <time>2020-08-22T08:42:29Z</time>
      </trkpt>
      <trkpt lat="47.10389" lon="6.20885">
        <ele>592.536011</ele>
        <time>2020-08-22T08:42:38Z</time>
      </trkpt>
      <trkpt lat="47.10378" lon="6.20914">
        <ele>594.022827</ele>
        <time>2020-08-22T08:42:43Z</time>
      </trkpt>
      <trkpt lat="47.1037" lon="6.20944">
        <ele>595.33606</ele>
        <time>2020-08-22T08:42:48Z</time>
      </trkpt>
      <trkpt lat="47.10373" lon="6.21029">
        <ele>596.244568</ele>
        <time>2020-08-22T08:43:01Z</time>
      </trkpt>
      <trkpt lat="47.10393" lon="6.21112">
        <ele>597.54248</ele>
        <time>2020-08-22T08:43:15Z</time>
      </trkpt>
      <trkpt lat="47.10401" lon="6.21159">
        <ele>598.302246</ele>
        <time>2020-08-22T08:43:23Z</time>
      </trkpt>
      <trkpt lat="47.10399" lon="6.21203">
        <ele>598.939026</ele>
        <time>2020-08-22T08:43:30Z</time>
      </trkpt>
      <trkpt lat="47.10347" lon="6.21316">
        <ele>598.939148</ele>
        <time>2020-08-22T08:43:52Z</time>
      </trkpt>
      <trkpt lat="47.10378" lon="6.21317">
        <ele>595.573181</ele>
        <time>2020-08-22T08:43:59Z</time>
      </trkpt>
      <trkpt lat="47.10438" lon="6.21308">
        <ele>593.253967</ele>
        <time>2020-08-22T08:44:13Z</time>
      </trkpt>
      <trkpt lat="47.10472" lon="6.2129">
        <ele>594.553223</ele>
        <time>2020-08-22T08:44:22Z</time>
      </trkpt>
      <trkpt lat="47.1049" lon="6.21294">
        <ele>594.074951</ele>
        <time>2020-08-22T08:44:26Z</time>
      </trkpt>
      <trkpt lat="47.105" lon="6.21304">
        <ele>592.608093</ele>
        <time>2020-08-22T08:44:29Z</time>
      </trkpt>
      <trkpt lat="47.10558" lon="6.21316">
        <ele>587.27002</ele>
        <time>2020-08-22T08:44:42Z</time>
      </trkpt>
      <trkpt lat="47.10592" lon="6.21299">
        <ele>585.710022</ele>
        <time>2020-08-22T08:44:51Z</time>
      </trkpt>
      <trkpt lat="47.10603" lon="6.21281">
        <ele>583.35498</ele>
        <time>2020-08-22T08:44:55Z</time>
      </trkpt>
      <trkpt lat="47.1061" lon="6.21258">
        <ele>581.73877</ele>
        <time>2020-08-22T08:44:59Z</time>
      </trkpt>
      <trkpt lat="47.1061" lon="6.2124">
        <ele>581.601257</ele>
        <time>2020-08-22T08:45:01Z</time>
      </trkpt>
      <trkpt lat="47.10595" lon="6.2118">
        <ele>577.380188</ele>
        <time>2020-08-22T08:45:12Z</time>
      </trkpt>
      <trkpt lat="47.10594" lon="6.21152">
        <ele>574.018372</ele>
        <time>2020-08-22T08:45:16Z</time>
      </trkpt>
      <trkpt lat="47.10603" lon="6.21137">
        <ele>570.846375</ele>
        <time>2020-08-22T08:45:19Z</time>
      </trkpt>
      <trkpt lat="47.10618" lon="6.21128">
        <ele>567.769958</ele>
        <time>2020-08-22T08:45:23Z</time>
      </trkpt>
      <trkpt lat="47.10629" lon="6.21128">
        <ele>566.311401</ele>
        <time>2020-08-22T08:45:26Z</time>
      </trkpt>
      <trkpt lat="47.10642" lon="6.21143">
        <ele>566.14624</ele>
        <time>2020-08-22T08:45:30Z</time>
      </trkpt>
      <trkpt lat="47.10665" lon="6.21185">
        <ele>566.904785</ele>
        <time>2020-08-22T08:45:38Z</time>
      </trkpt>
      <trkpt lat="47.10682" lon="6.21209">
        <ele>566.308289</ele>
        <time>2020-08-22T08:45:44Z</time>
      </trkpt>
      <trkpt lat="47.10695" lon="6.21209">
        <ele>564.664734</ele>
        <time>2020-08-22T08:45:47Z</time>
      </trkpt>
      <trkpt lat="47.10708" lon="6.21215">
        <ele>563.383606</ele>
        <time>2020-08-22T08:45:50Z</time>
      </trkpt>
      <trkpt lat="47.10714" lon="6.21232">
        <ele>563.612793</ele>
        <time>2020-08-22T08:45:53Z</time>
      </trkpt>
      <trkpt lat="47.1071" lon="6.21253">
        <ele>564.710266</ele>
        <time>2020-08-22T08:45:56Z</time>
      </trkpt>
      <trkpt lat="47.10698" lon="6.21281">
        <ele>565.040161</ele>
        <time>2020-08-22T08:46:02Z</time>
      </trkpt>
      <trkpt lat="47.10623" lon="6.21366">
        <ele>570.119629</ele>
        <time>2020-08-22T08:46:24Z</time>
      </trkpt>
      <trkpt lat="47.1059" lon="6.21387">
        <ele>567.14386</ele>
        <time>2020-08-22T08:46:32Z</time>
      </trkpt>
      <trkpt lat="47.10563" lon="6.21401">
        <ele>563.462524</ele>
        <time>2020-08-22T08:46:39Z</time>
      </trkpt>
      <trkpt lat="47.10543" lon="6.21404">
        <ele>563.467468</ele>
        <time>2020-08-22T08:46:43Z</time>
      </trkpt>
      <trkpt lat="47.1045" lon="6.21407">
        <ele>574.06488</ele>
        <time>2020-08-22T08:47:05Z</time>
      </trkpt>
      <trkpt lat="47.10433" lon="6.2141">
        <ele>576.294373</ele>
        <time>2020-08-22T08:47:09Z</time>
      </trkpt>
      <trkpt lat="47.10425" lon="6.21422">
        <ele>575.50647</ele>
        <time>2020-08-22T08:47:12Z</time>
      </trkpt>
      <trkpt lat="47.10422" lon="6.21433">
        <ele>575.86377</ele>
        <time>2020-08-22T08:47:14Z</time>
      </trkpt>
      <trkpt lat="47.10428" lon="6.21449">
        <ele>574.505005</ele>
        <time>2020-08-22T08:47:17Z</time>
      </trkpt>
      <trkpt lat="47.10516" lon="6.21575">
        <ele>564.717529</ele>
        <time>2020-08-22T08:47:45Z</time>
      </trkpt>
      <trkpt lat="47.10587" lon="6.21639">
        <ele>567.516235</ele>
        <time>2020-08-22T08:48:05Z</time>
      </trkpt>
      <trkpt lat="47.10614" lon="6.21669">
        <ele>569.461243</ele>
        <time>2020-08-22T08:48:13Z</time>
      </trkpt>
      <trkpt lat="47.10688" lon="6.21732">
        <ele>568.950012</ele>
        <time>2020-08-22T08:48:33Z</time>
      </trkpt>
      <trkpt lat="47.10722" lon="6.21783">
        <ele>570.591309</ele>
        <time>2020-08-22T08:48:44Z</time>
      </trkpt>
      <trkpt lat="47.10788" lon="6.2187">
        <ele>573.010376</ele>
        <time>2020-08-22T08:49:05Z</time>
      </trkpt>
      <trkpt lat="47.1083" lon="6.21931">
        <ele>574.077393</ele>
        <time>2020-08-22T08:49:19Z</time>
      </trkpt>
      <trkpt lat="47.1087" lon="6.22019">
        <ele>576.088745</ele>
        <time>2020-08-22T08:49:35Z</time>
      </trkpt>
      <trkpt lat="47.109" lon="6.22069">
        <ele>576.644531</ele>
        <time>2020-08-22T08:49:46Z</time>
      </trkpt>
      <trkpt lat="47.10929" lon="6.22111">
        <ele>579.882568</ele>
        <time>2020-08-22T08:49:55Z</time>
      </trkpt>
      <trkpt lat="47.10945" lon="6.22149">
        <ele>582.280029</ele>
        <time>2020-08-22T08:50:03Z</time>
      </trkpt>
      <trkpt lat="47.10956" lon="6.22194">
        <ele>585.51001</ele>
        <time>2020-08-22T08:50:10Z</time>
      </trkpt>
      <trkpt lat="47.10961" lon="6.22241">
        <ele>588.182739</ele>
        <time>2020-08-22T08:50:18Z</time>
      </trkpt>
      <trkpt lat="47.10951" lon="6.2228">
        <ele>592.29187</ele>
        <time>2020-08-22T08:50:24Z</time>
      </trkpt>
      <trkpt lat="47.10927" lon="6.22311">
        <ele>594.35321</ele>
        <time>2020-08-22T08:50:32Z</time>
      </trkpt>
      <trkpt lat="47.10875" lon="6.22366">
        <ele>596.039063</ele>
        <time>2020-08-22T08:50:47Z</time>
      </trkpt>
      <trkpt lat="47.10839" lon="6.22408">
        <ele>596.017517</ele>
        <time>2020-08-22T08:50:57Z</time>
      </trkpt>
      <trkpt lat="47.10835" lon="6.22421">
        <ele>596.138733</ele>
        <time>2020-08-22T08:51:00Z</time>
      </trkpt>
      <trkpt lat="47.1086" lon="6.22458">
        <ele>597</ele>
        <time>2020-08-22T08:51:08Z</time>
      </trkpt>
      <trkpt lat="47.10879" lon="6.22497">
        <ele>597</ele>
        <time>2020-08-22T08:51:16Z</time>
      </trkpt>
      <trkpt lat="47.10893" lon="6.2255">
        <ele>597</ele>
        <time>2020-08-22T08:51:25Z</time>
      </trkpt>
      <trkpt lat="47.10956" lon="6.22691">
        <ele>597</ele>
        <time>2020-08-22T08:51:52Z</time>
      </trkpt>
      <trkpt lat="47.1101" lon="6.22844">
        <ele>595.722778</ele>
        <time>2020-08-22T08:52:19Z</time>
      </trkpt>
      <trkpt lat="47.11022" lon="6.22897">
        <ele>595.30658</ele>
        <time>2020-08-22T08:52:28Z</time>
      </trkpt>
      <trkpt lat="47.1103" lon="6.22948">
        <ele>595.065186</ele>
        <time>2020-08-22T08:52:36Z</time>
      </trkpt>
      <trkpt lat="47.11025" lon="6.23016">
        <ele>595.238708</ele>
        <time>2020-08-22T08:52:47Z</time>
      </trkpt>
      <trkpt lat="47.11016" lon="6.2306">
        <ele>596.130432</ele>
        <time>2020-08-22T08:52:54Z</time>
      </trkpt>
      <trkpt lat="47.10988" lon="6.23071">
        <ele>595.929077</ele>
        <time>2020-08-22T08:53:01Z</time>
      </trkpt>
      <trkpt lat="47.1094" lon="6.23085">
        <ele>596.219971</ele>
        <time>2020-08-22T08:53:12Z</time>
      </trkpt>
      <trkpt lat="47.10901" lon="6.23091">
        <ele>596.07843</ele>
        <time>2020-08-22T08:53:22Z</time>
      </trkpt>
      <trkpt lat="47.10849" lon="6.23093">
        <ele>595.245239</ele>
        <time>2020-08-22T08:53:34Z</time>
      </trkpt>
      <trkpt lat="47.10827" lon="6.23124">
        <ele>594.774536</ele>
        <time>2020-08-22T08:53:41Z</time>
      </trkpt>
      <trkpt lat="47.10776" lon="6.23209">
        <ele>592.607544</ele>
        <time>2020-08-22T08:53:59Z</time>
      </trkpt>
      <trkpt lat="47.1072" lon="6.23273">
        <ele>591.748718</ele>
        <time>2020-08-22T08:54:15Z</time>
      </trkpt>
      <trkpt lat="47.10689" lon="6.23291">
        <ele>593.125</ele>
        <time>2020-08-22T08:54:23Z</time>
      </trkpt>
      <trkpt lat="47.10654" lon="6.23294">
        <ele>594.067505</ele>
        <time>2020-08-22T08:54:31Z</time>
      </trkpt>
      <trkpt lat="47.10599" lon="6.23292">
        <ele>596</ele>
        <time>2020-08-22T08:54:44Z</time>
      </trkpt>
      <trkpt lat="47.1056" lon="6.23283">
        <ele>596</ele>
        <time>2020-08-22T08:54:54Z</time>
      </trkpt>
      <trkpt lat="47.10514" lon="6.23286">
        <ele>594.01001</ele>
        <time>2020-08-22T08:55:04Z</time>
      </trkpt>
      <trkpt lat="47.10479" lon="6.23284">
        <ele>592.868469</ele>
        <time>2020-08-22T08:55:12Z</time>
      </trkpt>
      <trkpt lat="47.10423" lon="6.23237">
        <ele>593.561279</ele>
        <time>2020-08-22T08:55:28Z</time>
      </trkpt>
      <trkpt lat="47.1039" lon="6.23233">
        <ele>594.960022</ele>
        <time>2020-08-22T08:55:35Z</time>
      </trkpt>
      <trkpt lat="47.10284" lon="6.23237">
        <ele>597.55249</ele>
        <time>2020-08-22T08:56:00Z</time>
      </trkpt>
      <trkpt lat="47.10248" lon="6.23241">
        <ele>599.344971</ele>
        <time>2020-08-22T08:56:08Z</time>
      </trkpt>
      <trkpt lat="47.10181" lon="6.23259">
        <ele>600.375671</ele>
        <time>2020-08-22T08:56:24Z</time>
      </trkpt>
      <trkpt lat="47.10146" lon="6.23258">
        <ele>600.87207</ele>
        <time>2020-08-22T08:56:33Z</time>
      </trkpt>
      <trkpt lat="47.10113" lon="6.2326">
        <ele>600.666382</ele>
        <time>2020-08-22T08:56:40Z</time>
      </trkpt>
      <trkpt lat="47.1008" lon="6.23268">
        <ele>600.551147</ele>
        <time>2020-08-22T08:56:48Z</time>
      </trkpt>
      <trkpt lat="47.1004" lon="6.23282">
        <ele>600.720947</ele>
        <time>2020-08-22T08:56:58Z</time>
      </trkpt>
      <trkpt lat="47.09963" lon="6.23327">
        <ele>601.270996</ele>
        <time>2020-08-22T08:57:17Z</time>
      </trkpt>
      <trkpt lat="47.09907" lon="6.23353">
        <ele>603.925842</ele>
        <time>2020-08-22T08:57:31Z</time>
      </trkpt>
      <trkpt lat="47.09783" lon="6.234">
        <ele>611.534302</ele>
        <time>2020-08-22T08:58:01Z</time>
      </trkpt>
      <trkpt lat="47.09747" lon="6.23402">
        <ele>612.463806</ele>
        <time>2020-08-22T08:58:09Z</time>
      </trkpt>
      <trkpt lat="47.09662" lon="6.23417">
        <ele>610.04071</ele>
        <time>2020-08-22T08:58:29Z</time>
      </trkpt>
      <trkpt lat="47.09632" lon="6.23435">
        <ele>608.155518</ele>
        <time>2020-08-22T08:58:37Z</time>
      </trkpt>
      <trkpt lat="47.09586" lon="6.23477">
        <ele>606</ele>
        <time>2020-08-22T08:58:49Z</time>
      </trkpt>
      <trkpt lat="47.09551" lon="6.23491">
        <ele>606</ele>
        <time>2020-08-22T08:58:58Z</time>
      </trkpt>
      <trkpt lat="47.09525" lon="6.23467">
        <ele>606.039978</ele>
        <time>2020-08-22T08:59:05Z</time>
      </trkpt>
      <trkpt lat="47.09496" lon="6.23447">
        <ele>606.641846</ele>
        <time>2020-08-22T08:59:12Z</time>
      </trkpt>
      <trkpt lat="47.09474" lon="6.23442">
        <ele>606.98407</ele>
        <time>2020-08-22T08:59:18Z</time>
      </trkpt>
      <trkpt lat="47.09459" lon="6.23446">
        <ele>607</ele>
        <time>2020-08-22T08:59:21Z</time>
      </trkpt>
      <trkpt lat="47.09419" lon="6.23426">
        <ele>607</ele>
        <time>2020-08-22T08:59:31Z</time>
      </trkpt>
      <trkpt lat="47.09289" lon="6.23397">
        <ele>607.096741</ele>
        <time>2020-08-22T09:00:02Z</time>
      </trkpt>
      <trkpt lat="47.09182" lon="6.23363">
        <ele>608.630798</ele>
        <time>2020-08-22T09:00:27Z</time>
      </trkpt>
      <trkpt lat="47.0914" lon="6.23337">
        <ele>609</ele>
        <time>2020-08-22T09:00:38Z</time>
      </trkpt>
      <trkpt lat="47.08953" lon="6.23236">
        <ele>609.912476</ele>
        <time>2020-08-22T09:01:24Z</time>
      </trkpt>
      <trkpt lat="47.08686" lon="6.23107">
        <ele>613.036011</ele>
        <time>2020-08-22T09:02:30Z</time>
      </trkpt>
      <trkpt lat="47.08623" lon="6.23083">
        <ele>613.628174</ele>
        <time>2020-08-22T09:02:45Z</time>
      </trkpt>
      <trkpt lat="47.08566" lon="6.23054">
        <ele>614.880371</ele>
        <time>2020-08-22T09:02:59Z</time>
      </trkpt>
      <trkpt lat="47.085" lon="6.23004">
        <ele>615.867493</ele>
        <time>2020-08-22T09:03:17Z</time>
      </trkpt>
      <trkpt lat="47.08455" lon="6.22982">
        <ele>617.617554</ele>
        <time>2020-08-22T09:03:28Z</time>
      </trkpt>
      <trkpt lat="47.0841" lon="6.22939">
        <ele>621.229553</ele>
        <time>2020-08-22T09:03:40Z</time>
      </trkpt>
      <trkpt lat="47.08177" lon="6.22961">
        <ele>636.311279</ele>
        <time>2020-08-22T09:04:35Z</time>
      </trkpt>
      <trkpt lat="47.0811" lon="6.22974">
        <ele>641.203918</ele>
        <time>2020-08-22T09:04:51Z</time>
      </trkpt>
      <trkpt lat="47.08052" lon="6.22997">
        <ele>643.77002</ele>
        <time>2020-08-22T09:05:05Z</time>
      </trkpt>
      <trkpt lat="47.07965" lon="6.23026">
        <ele>647.587952</ele>
        <time>2020-08-22T09:05:25Z</time>
      </trkpt>
      <trkpt lat="47.07877" lon="6.23">
        <ele>650.765015</ele>
        <time>2020-08-22T09:05:46Z</time>
      </trkpt>
      <trkpt lat="47.07798" lon="6.2297">
        <ele>649.455017</ele>
        <time>2020-08-22T09:06:06Z</time>
      </trkpt>
      <trkpt lat="47.07739" lon="6.22956">
        <ele>647.423523</ele>
        <time>2020-08-22T09:06:19Z</time>
      </trkpt>
      <trkpt lat="47.07704" lon="6.22966">
        <ele>646.965881</ele>
        <time>2020-08-22T09:06:28Z</time>
      </trkpt>
      <trkpt lat="47.07651" lon="6.22972">
        <ele>646.616943</ele>
        <time>2020-08-22T09:06:40Z</time>
      </trkpt>
      <trkpt lat="47.07623" lon="6.22979">
        <ele>646.653748</ele>
        <time>2020-08-22T09:06:47Z</time>
      </trkpt>
      <trkpt lat="47.07605" lon="6.22946">
        <ele>646.172485</ele>
        <time>2020-08-22T09:06:54Z</time>
      </trkpt>
      <trkpt lat="47.0758" lon="6.22919">
        <ele>645.461426</ele>
        <time>2020-08-22T09:07:01Z</time>
      </trkpt>
      <trkpt lat="47.07524" lon="6.22866">
        <ele>642.824951</ele>
        <time>2020-08-22T09:07:16Z</time>
      </trkpt>
      <trkpt lat="47.07507" lon="6.22857">
        <ele>639.975647</ele>
        <time>2020-08-22T09:07:21Z</time>
      </trkpt>
      <trkpt lat="47.07458" lon="6.22865">
        <ele>636.245605</ele>
        <time>2020-08-22T09:07:32Z</time>
      </trkpt>
      <trkpt lat="47.07418" lon="6.2288">
        <ele>631.699402</ele>
        <time>2020-08-22T09:07:42Z</time>
      </trkpt>
      <trkpt lat="47.07386" lon="6.22898">
        <ele>631.223755</ele>
        <time>2020-08-22T09:07:50Z</time>
      </trkpt>
      <trkpt lat="47.07343" lon="6.22937">
        <ele>629.546997</ele>
        <time>2020-08-22T09:08:02Z</time>
      </trkpt>
      <trkpt lat="47.07318" lon="6.22956">
        <ele>626.923218</ele>
        <time>2020-08-22T09:08:08Z</time>
      </trkpt>
      <trkpt lat="47.07303" lon="6.22963">
        <ele>624.00354</ele>
        <time>2020-08-22T09:08:12Z</time>
      </trkpt>
      <trkpt lat="47.0728" lon="6.22967">
        <ele>617.687073</ele>
        <time>2020-08-22T09:08:17Z</time>
      </trkpt>
      <trkpt lat="47.07258" lon="6.2296">
        <ele>611.258362</ele>
        <time>2020-08-22T09:08:22Z</time>
      </trkpt>
      <trkpt lat="47.0717" lon="6.22912">
        <ele>588.139343</ele>
        <time>2020-08-22T09:08:44Z</time>
      </trkpt>
      <trkpt lat="47.07073" lon="6.22853">
        <ele>573.965454</ele>
        <time>2020-08-22T09:09:09Z</time>
      </trkpt>
      <trkpt lat="47.07038" lon="6.22804">
        <ele>559.285889</ele>
        <time>2020-08-22T09:09:20Z</time>
      </trkpt>
      <trkpt lat="47.07024" lon="6.22771">
        <ele>550.951477</ele>
        <time>2020-08-22T09:09:26Z</time>
      </trkpt>
      <trkpt lat="47.07015" lon="6.22734">
        <ele>540.998352</ele>
        <time>2020-08-22T09:09:33Z</time>
      </trkpt>
      <trkpt lat="47.07006" lon="6.22715">
        <ele>536.494324</ele>
        <time>2020-08-22T09:09:36Z</time>
      </trkpt>
      <trkpt lat="47.06972" lon="6.22679">
        <ele>532.20282</ele>
        <time>2020-08-22T09:09:46Z</time>
      </trkpt>
      <trkpt lat="47.07014" lon="6.22686">
        <ele>526.146301</ele>
        <time>2020-08-22T09:09:56Z</time>
      </trkpt>
      <trkpt lat="47.07036" lon="6.22705">
        <ele>528.126282</ele>
        <time>2020-08-22T09:10:02Z</time>
      </trkpt>
      <trkpt lat="47.07077" lon="6.22732">
        <ele>530.615601</ele>
        <time>2020-08-22T09:10:12Z</time>
      </trkpt>
      <trkpt lat="47.07067" lon="6.22716">
        <ele>525.734924</ele>
        <time>2020-08-22T09:10:16Z</time>
      </trkpt>
      <trkpt lat="47.07045" lon="6.22694">
        <ele>522.282959</ele>
        <time>2020-08-22T09:10:22Z</time>
      </trkpt>
      <trkpt lat="47.07002" lon="6.22643">
        <ele>512.96698</ele>
        <time>2020-08-22T09:10:35Z</time>
      </trkpt>
      <trkpt lat="47.06969" lon="6.22615">
        <ele>512.115295</ele>
        <time>2020-08-22T09:10:44Z</time>
      </trkpt>
      <trkpt lat="47.06953" lon="6.22598">
        <ele>510.168182</ele>
        <time>2020-08-22T09:10:49Z</time>
      </trkpt>
      <trkpt lat="47.06906" lon="6.22534">
        <ele>503.014191</ele>
        <time>2020-08-22T09:11:03Z</time>
      </trkpt>
      <trkpt lat="47.06865" lon="6.22445">
        <ele>491.33252</ele>
        <time>2020-08-22T09:11:21Z</time>
      </trkpt>
      <trkpt lat="47.06788" lon="6.22295">
        <ele>477.355255</ele>
        <time>2020-08-22T09:11:50Z</time>
      </trkpt>
      <trkpt lat="47.0677" lon="6.22269">
        <ele>475.25061</ele>
        <time>2020-08-22T09:11:56Z</time>
      </trkpt>
      <trkpt lat="47.06753" lon="6.22251">
        <ele>473.226898</ele>
        <time>2020-08-22T09:12:01Z</time>
      </trkpt>
      <trkpt lat="47.06723" lon="6.22227">
        <ele>470.449738</ele>
        <time>2020-08-22T09:12:09Z</time>
      </trkpt>
      <trkpt lat="47.0673" lon="6.22215">
        <ele>462.870605</ele>
        <time>2020-08-22T09:12:12Z</time>
      </trkpt>
      <trkpt lat="47.06752" lon="6.22221">
        <ele>460.305634</ele>
        <time>2020-08-22T09:12:17Z</time>
      </trkpt>
      <trkpt lat="47.06805" lon="6.22258">
        <ele>457.692505</ele>
        <time>2020-08-22T09:12:31Z</time>
      </trkpt>
      <trkpt lat="47.06851" lon="6.22311">
        <ele>456.603302</ele>
        <time>2020-08-22T09:12:44Z</time>
      </trkpt>
      <trkpt lat="47.06862" lon="6.22331">
        <ele>458.084991</ele>
        <time>2020-08-22T09:12:48Z</time>
      </trkpt>
      <trkpt lat="47.06877" lon="6.22336">
        <ele>452.429993</ele>
        <time>2020-08-22T09:12:52Z</time>
      </trkpt>
      <trkpt lat="47.0688" lon="6.22321">
        <ele>445.956238</ele>
        <time>2020-08-22T09:12:54Z</time>
      </trkpt>
      <trkpt lat="47.06886" lon="6.22308">
        <ele>438.644989</ele>
        <time>2020-08-22T09:12:57Z</time>
      </trkpt>
      <trkpt lat="47.06899" lon="6.22306">
        <ele>431.625</ele>
        <time>2020-08-22T09:13:00Z</time>
      </trkpt>
      <trkpt lat="47.06918" lon="6.2232">
        <ele>427.437012</ele>
        <time>2020-08-22T09:13:05Z</time>
      </trkpt>
      <trkpt lat="47.06928" lon="6.22322">
        <ele>423.505493</ele>
        <time>2020-08-22T09:13:07Z</time>
      </trkpt>
      <trkpt lat="47.06927" lon="6.22305">
        <ele>418.909637</ele>
        <time>2020-08-22T09:13:10Z</time>
      </trkpt>
      <trkpt lat="47.06863" lon="6.22188">
        <ele>408.718811</ele>
        <time>2020-08-22T09:13:34Z</time>
      </trkpt>
      <trkpt lat="47.06856" lon="6.22156">
        <ele>399.056763</ele>
        <time>2020-08-22T09:13:39Z</time>
      </trkpt>
      <trkpt lat="47.06861" lon="6.22137">
        <ele>393.823242</ele>
        <time>2020-08-22T09:13:43Z</time>
      </trkpt>
      <trkpt lat="47.06886" lon="6.22117">
        <ele>385.159241</ele>
        <time>2020-08-22T09:13:49Z</time>
      </trkpt>
      <trkpt lat="47.06874" lon="6.22092">
        <ele>382.593689</ele>
        <time>2020-08-22T09:13:54Z</time>
      </trkpt>
      <trkpt lat="47.06826" lon="6.22011">
        <ele>378.127075</ele>
        <time>2020-08-22T09:14:11Z</time>
      </trkpt>
      <trkpt lat="47.06754" lon="6.21915">
        <ele>369.413269</ele>
        <time>2020-08-22T09:14:34Z</time>
      </trkpt>
      <trkpt lat="47.06732" lon="6.21892">
        <ele>366.734985</ele>
        <time>2020-08-22T09:14:40Z</time>
      </trkpt>
      <trkpt lat="47.06705" lon="6.21878">
        <ele>365.369598</ele>
        <time>2020-08-22T09:14:47Z</time>
      </trkpt>
      <trkpt lat="47.06651" lon="6.21864">
        <ele>363.117462</ele>
        <time>2020-08-22T09:15:00Z</time>
      </trkpt>
      <trkpt lat="47.0663" lon="6.21847">
        <ele>360.604706</ele>
        <time>2020-08-22T09:15:05Z</time>
      </trkpt>
      <trkpt lat="47.06612" lon="6.21821">
        <ele>357.558838</ele>
        <time>2020-08-22T09:15:11Z</time>
      </trkpt>
      <trkpt lat="47.06582" lon="6.21769">
        <ele>354.799896</ele>
        <time>2020-08-22T09:15:22Z</time>
      </trkpt>
      <trkpt lat="47.06589" lon="6.21752">
        <ele>354.81662</ele>
        <time>2020-08-22T09:15:25Z</time>
      </trkpt>
      <trkpt lat="47.06602" lon="6.21739">
        <ele>354.939667</ele>
        <time>2020-08-22T09:15:29Z</time>
      </trkpt>
      <trkpt lat="47.06623" lon="6.21679">
        <ele>354.04184</ele>
        <time>2020-08-22T09:15:40Z</time>
      </trkpt>
      <trkpt lat="47.0661" lon="6.21667">
        <ele>353.862488</ele>
        <time>2020-08-22T09:15:43Z</time>
      </trkpt>
      <trkpt lat="47.06603" lon="6.21673">
        <ele>353.961243</ele>
        <time>2020-08-22T09:15:45Z</time>
      </trkpt>
      <trkpt lat="47.06596" lon="6.2167">
        <ele>353.923737</ele>
        <time>2020-08-22T09:15:47Z</time>
      </trkpt>
      <trkpt lat="47.06573" lon="6.21629">
        <ele>353.326263</ele>
        <time>2020-08-22T09:15:55Z</time>
      </trkpt>
      <trkpt lat="47.06564" lon="6.2162">
        <ele>353.200012</ele>
        <time>2020-08-22T09:15:58Z</time>
      </trkpt>
      <trkpt lat="47.06553" lon="6.21615">
        <ele>352.754181</ele>
        <time>2020-08-22T09:16:00Z</time>
      </trkpt>
      <trkpt lat="47.06519" lon="6.21611">
        <ele>351.291077</ele>
        <time>2020-08-22T09:16:08Z</time>
      </trkpt>
      <trkpt lat="47.06508" lon="6.21613">
        <ele>351.073212</ele>
        <time>2020-08-22T09:16:11Z</time>
      </trkpt>
      <trkpt lat="47.06499" lon="6.21619">
        <ele>351.01001</ele>
        <time>2020-08-22T09:16:13Z</time>
      </trkpt>
      <trkpt lat="47.06479" lon="6.21606">
        <ele>350.238037</ele>
        <time>2020-08-22T09:16:18Z</time>
      </trkpt>
      <trkpt lat="47.06464" lon="6.21604">
        <ele>350.028473</ele>
        <time>2020-08-22T09:16:22Z</time>
      </trkpt>
      <trkpt lat="47.06442" lon="6.21591">
        <ele>349.967072</ele>
        <time>2020-08-22T09:16:27Z</time>
      </trkpt>
      <trkpt lat="47.06424" lon="6.21573">
        <ele>350.135986</ele>
        <time>2020-08-22T09:16:33Z</time>
      </trkpt>
      <trkpt lat="47.06409" lon="6.21502">
        <ele>350.766296</ele>
        <time>2020-08-22T09:16:44Z</time>
      </trkpt>
      <trkpt lat="47.0641" lon="6.21482">
        <ele>350.612</ele>
        <time>2020-08-22T09:16:48Z</time>
      </trkpt>
      <trkpt lat="47.06415" lon="6.21466">
        <ele>350.389984</ele>
        <time>2020-08-22T09:16:50Z</time>
      </trkpt>
      <trkpt lat="47.06422" lon="6.21459">
        <ele>350.230011</ele>
        <time>2020-08-22T09:16:52Z</time>
      </trkpt>
      <trkpt lat="47.06426" lon="6.21445">
        <ele>350.154999</ele>
        <time>2020-08-22T09:16:55Z</time>
      </trkpt>
      <trkpt lat="47.06428" lon="6.21421">
        <ele>350.125</ele>
        <time>2020-08-22T09:16:59Z</time>
      </trkpt>
      <trkpt lat="47.06435" lon="6.21385">
        <ele>350.223755</ele>
        <time>2020-08-22T09:17:05Z</time>
      </trkpt>
      <trkpt lat="47.06439" lon="6.21296">
        <ele>351.524811</ele>
        <time>2020-08-22T09:17:19Z</time>
      </trkpt>
      <trkpt lat="47.0645" lon="6.21234">
        <ele>351.754364</ele>
        <time>2020-08-22T09:17:29Z</time>
      </trkpt>
      <trkpt lat="47.06487" lon="6.21122">
        <ele>350.482086</ele>
        <time>2020-08-22T09:17:49Z</time>
      </trkpt>
      <trkpt lat="47.06528" lon="6.20974">
        <ele>348.867493</ele>
        <time>2020-08-22T09:18:14Z</time>
      </trkpt>
      <trkpt lat="47.06539" lon="6.20975">
        <ele>347.534912</ele>
        <time>2020-08-22T09:18:17Z</time>
      </trkpt>
      <trkpt lat="47.06554" lon="6.20971">
        <ele>346.143829</ele>
        <time>2020-08-22T09:18:20Z</time>
      </trkpt>
      <trkpt lat="47.06596" lon="6.20942">
        <ele>345.029999</ele>
        <time>2020-08-22T09:18:31Z</time>
      </trkpt>
      <trkpt lat="47.06618" lon="6.20912">
        <ele>345.919403</ele>
        <time>2020-08-22T09:18:38Z</time>
      </trkpt>
      <trkpt lat="47.06642" lon="6.20873">
        <ele>346.398285</ele>
        <time>2020-08-22T09:18:46Z</time>
      </trkpt>
      <trkpt lat="47.06661" lon="6.20851">
        <ele>345.541962</ele>
        <time>2020-08-22T09:18:52Z</time>
      </trkpt>
      <trkpt lat="47.06697" lon="6.20775">
        <ele>345.401245</ele>
        <time>2020-08-22T09:19:07Z</time>
      </trkpt>
      <trkpt lat="47.06708" lon="6.20732">
        <ele>346.535461</ele>
        <time>2020-08-22T09:19:14Z</time>
      </trkpt>
      <trkpt lat="47.06727" lon="6.2069">
        <ele>348.094971</ele>
        <time>2020-08-22T09:19:22Z</time>
      </trkpt>
      <trkpt lat="47.0672" lon="6.20674">
        <ele>348.453247</ele>
        <time>2020-08-22T09:19:25Z</time>
      </trkpt>
      <trkpt lat="47.06709" lon="6.20661">
        <ele>348.97171</ele>
        <time>2020-08-22T09:19:29Z</time>
      </trkpt>
      <trkpt lat="47.06711" lon="6.20648">
        <ele>349.304108</ele>
        <time>2020-08-22T09:19:31Z</time>
      </trkpt>
      <trkpt lat="47.06718" lon="6.20635">
        <ele>349.416321</ele>
        <time>2020-08-22T09:19:33Z</time>
      </trkpt>
      <trkpt lat="47.06725" lon="6.20595">
        <ele>350.961609</ele>
        <time>2020-08-22T09:19:40Z</time>
      </trkpt>
      <trkpt lat="47.06715" lon="6.20584">
        <ele>352.071075</ele>
        <time>2020-08-22T09:19:43Z</time>
      </trkpt>
      <trkpt lat="47.06714" lon="6.20567">
        <ele>353.044373</ele>
        <time>2020-08-22T09:19:45Z</time>
      </trkpt>
      <trkpt lat="47.06726" lon="6.20551">
        <ele>353.594696</ele>
        <time>2020-08-22T09:19:49Z</time>
      </trkpt>
      <trkpt lat="47.06754" lon="6.20537">
        <ele>352.498016</ele>
        <time>2020-08-22T09:19:56Z</time>
      </trkpt>
      <trkpt lat="47.06804" lon="6.20517">
        <ele>349.505005</ele>
        <time>2020-08-22T09:20:08Z</time>
      </trkpt>
      <trkpt lat="47.06841" lon="6.20497">
        <ele>348.704559</ele>
        <time>2020-08-22T09:20:17Z</time>
      </trkpt>
      <trkpt lat="47.06872" lon="6.20486">
        <ele>347.283539</ele>
        <time>2020-08-22T09:20:25Z</time>
      </trkpt>
    </trkseg>
  </trk>
</gpx>